<?xml version="1.0" encoding="UTF-8"?>
<gpx version="1.1" creator="https://www.youtrack.es" xsi:schemaLocation="http://www.topografix.com/GPX/1/1 http://www.topografix.com/GPX/1/1/gpx.xsd http://www.garmin.com/xmlschemas/GpxExtensions/v3 http://www.garmin.com/xmlschemas/GpxExtensionsv3.xsd http://www.garmin.com/xmlschemas/TrackPointExtension/v1 http://www.garmin.com/xmlschemas/TrackPointExtensionv1.xsd" xmlns:gpxtpx="http://www.garmin.com/xmlschemas/TrackPointExtension/v1" xmlns:gpxx="http://www.garmin.com/xmlschemas/GpxExtensions/v3" xmlns:xsi="http://www.w3.org/2001/XMLSchema-instance">
  <metadata>
    <link href="https://www.youtrack.es">
      <text>YouTrack.es</text>
    </link>
    <time>2026-05-08T21:11:25Z</time>
  </metadata>
  <trk>
    <src>https://www.youtrack.es</src>
    <link href="https://www.youtrack.es/ruta/16325-travessa-les-salines-2020">
      <text>YouTrack.es</text>
    </link>
    <trkseg>
      <trkpt lat="40.909475" lon="0.261054">
        <ele>503.021</ele>
        <time>2020-10-02T09:47:26Z</time>
      </trkpt>
      <trkpt lat="40.908129" lon="0.262320">
        <ele>492.841</ele>
        <time>2020-10-02T09:48:06Z</time>
      </trkpt>
      <trkpt lat="40.907123" lon="0.263157">
        <ele>502.905</ele>
        <time>2020-10-02T09:48:46Z</time>
      </trkpt>
      <trkpt lat="40.907237" lon="0.263779">
        <ele>501.408</ele>
        <time>2020-10-02T09:49:26Z</time>
      </trkpt>
      <trkpt lat="40.906896" lon="0.264573">
        <ele>498.137</ele>
        <time>2020-10-02T09:50:06Z</time>
      </trkpt>
      <trkpt lat="40.906377" lon="0.266054">
        <ele>492.119</ele>
        <time>2020-10-02T09:50:46Z</time>
      </trkpt>
      <trkpt lat="40.905956" lon="0.267427">
        <ele>489.788</ele>
        <time>2020-10-02T09:51:26Z</time>
      </trkpt>
      <trkpt lat="40.905680" lon="0.267920">
        <ele>493.941</ele>
        <time>2020-10-02T09:52:06Z</time>
      </trkpt>
      <trkpt lat="40.905210" lon="0.267920">
        <ele>496.069</ele>
        <time>2020-10-02T09:52:46Z</time>
      </trkpt>
      <trkpt lat="40.905323" lon="0.268586">
        <ele>501.941</ele>
        <time>2020-10-02T09:53:26Z</time>
      </trkpt>
      <trkpt lat="40.904869" lon="0.269594">
        <ele>504.253</ele>
        <time>2020-10-02T09:54:06Z</time>
      </trkpt>
      <trkpt lat="40.904204" lon="0.270495">
        <ele>505.469</ele>
        <time>2020-10-02T09:54:46Z</time>
      </trkpt>
      <trkpt lat="40.903442" lon="0.271418">
        <ele>511.625</ele>
        <time>2020-10-02T09:55:26Z</time>
      </trkpt>
      <trkpt lat="40.903118" lon="0.271826">
        <ele>511.426</ele>
        <time>2020-10-02T09:56:06Z</time>
      </trkpt>
      <trkpt lat="40.903037" lon="0.272791">
        <ele>512.108</ele>
        <time>2020-10-02T09:56:46Z</time>
      </trkpt>
      <trkpt lat="40.902842" lon="0.273693">
        <ele>513.508</ele>
        <time>2020-10-02T09:57:26Z</time>
      </trkpt>
      <trkpt lat="40.902518" lon="0.274787">
        <ele>517.317</ele>
        <time>2020-10-02T09:58:06Z</time>
      </trkpt>
      <trkpt lat="40.902242" lon="0.275602">
        <ele>520.199</ele>
        <time>2020-10-02T09:58:46Z</time>
      </trkpt>
      <trkpt lat="40.901934" lon="0.276096">
        <ele>524.598</ele>
        <time>2020-10-02T09:59:26Z</time>
      </trkpt>
      <trkpt lat="40.901707" lon="0.276182">
        <ele>529.071</ele>
        <time>2020-10-02T10:00:06Z</time>
      </trkpt>
      <trkpt lat="40.901463" lon="0.276804">
        <ele>526.979</ele>
        <time>2020-10-02T10:00:46Z</time>
      </trkpt>
      <trkpt lat="40.900928" lon="0.276847">
        <ele>530.471</ele>
        <time>2020-10-02T10:01:26Z</time>
      </trkpt>
      <trkpt lat="40.900344" lon="0.276825">
        <ele>534.613</ele>
        <time>2020-10-02T10:02:06Z</time>
      </trkpt>
      <trkpt lat="40.899404" lon="0.276954">
        <ele>545.029</ele>
        <time>2020-10-02T10:02:46Z</time>
      </trkpt>
      <trkpt lat="40.898787" lon="0.276783">
        <ele>555.937</ele>
        <time>2020-10-02T10:03:26Z</time>
      </trkpt>
      <trkpt lat="40.898317" lon="0.276675">
        <ele>559.949</ele>
        <time>2020-10-02T10:04:06Z</time>
      </trkpt>
      <trkpt lat="40.897587" lon="0.276997">
        <ele>554.413</ele>
        <time>2020-10-02T10:04:46Z</time>
      </trkpt>
      <trkpt lat="40.897100" lon="0.276761">
        <ele>564.608</ele>
        <time>2020-10-02T10:05:26Z</time>
      </trkpt>
      <trkpt lat="40.896500" lon="0.276546">
        <ele>573.048</ele>
        <time>2020-10-02T10:06:06Z</time>
      </trkpt>
      <trkpt lat="40.896160" lon="0.276761">
        <ele>571.050</ele>
        <time>2020-10-02T10:06:46Z</time>
      </trkpt>
      <trkpt lat="40.895738" lon="0.276847">
        <ele>579.089</ele>
        <time>2020-10-02T10:07:26Z</time>
      </trkpt>
      <trkpt lat="40.895073" lon="0.276890">
        <ele>581.972</ele>
        <time>2020-10-02T10:08:06Z</time>
      </trkpt>
      <trkpt lat="40.894651" lon="0.276890">
        <ele>581.630</ele>
        <time>2020-10-02T10:08:46Z</time>
      </trkpt>
      <trkpt lat="40.894035" lon="0.276847">
        <ele>583.122</ele>
        <time>2020-10-02T10:09:26Z</time>
      </trkpt>
      <trkpt lat="40.893613" lon="0.276268">
        <ele>577.964</ele>
        <time>2020-10-02T10:10:06Z</time>
      </trkpt>
      <trkpt lat="40.893500" lon="0.275667">
        <ele>581.640</ele>
        <time>2020-10-02T10:10:46Z</time>
      </trkpt>
      <trkpt lat="40.893078" lon="0.275323">
        <ele>578.553</ele>
        <time>2020-10-02T10:11:26Z</time>
      </trkpt>
      <trkpt lat="40.892948" lon="0.274765">
        <ele>591.504</ele>
        <time>2020-10-02T10:12:06Z</time>
      </trkpt>
      <trkpt lat="40.892218" lon="0.274444">
        <ele>580.014</ele>
        <time>2020-10-02T10:12:46Z</time>
      </trkpt>
      <trkpt lat="40.892218" lon="0.274165">
        <ele>588.008</ele>
        <time>2020-10-02T10:13:26Z</time>
      </trkpt>
      <trkpt lat="40.891715" lon="0.273843">
        <ele>592.690</ele>
        <time>2020-10-02T10:14:06Z</time>
      </trkpt>
      <trkpt lat="40.891326" lon="0.274014">
        <ele>593.192</ele>
        <time>2020-10-02T10:14:46Z</time>
      </trkpt>
      <trkpt lat="40.891066" lon="0.273306">
        <ele>609.381</ele>
        <time>2020-10-02T10:15:26Z</time>
      </trkpt>
      <trkpt lat="40.890742" lon="0.273221">
        <ele>603.224</ele>
        <time>2020-10-02T10:16:06Z</time>
      </trkpt>
      <trkpt lat="40.890450" lon="0.273263">
        <ele>596.242</ele>
        <time>2020-10-02T10:16:46Z</time>
      </trkpt>
      <trkpt lat="40.890353" lon="0.272920">
        <ele>604.144</ele>
        <time>2020-10-02T10:17:26Z</time>
      </trkpt>
      <trkpt lat="40.890012" lon="0.272813">
        <ele>603.456</ele>
        <time>2020-10-02T10:18:06Z</time>
      </trkpt>
      <trkpt lat="40.889363" lon="0.272276">
        <ele>607.152</ele>
        <time>2020-10-02T10:18:46Z</time>
      </trkpt>
      <trkpt lat="40.889039" lon="0.271869">
        <ele>605.082</ele>
        <time>2020-10-02T10:19:26Z</time>
      </trkpt>
      <trkpt lat="40.888828" lon="0.271568">
        <ele>603.243</ele>
        <time>2020-10-02T10:20:06Z</time>
      </trkpt>
      <trkpt lat="40.888049" lon="0.270882">
        <ele>601.017</ele>
        <time>2020-10-02T10:20:46Z</time>
      </trkpt>
      <trkpt lat="40.887449" lon="0.270839">
        <ele>596.008</ele>
        <time>2020-10-02T10:21:26Z</time>
      </trkpt>
      <trkpt lat="40.886881" lon="0.270474">
        <ele>594.463</ele>
        <time>2020-10-02T10:22:06Z</time>
      </trkpt>
      <trkpt lat="40.886151" lon="0.270238">
        <ele>596.215</ele>
        <time>2020-10-02T10:22:46Z</time>
      </trkpt>
      <trkpt lat="40.885227" lon="0.269959">
        <ele>602.144</ele>
        <time>2020-10-02T10:23:26Z</time>
      </trkpt>
      <trkpt lat="40.884383" lon="0.269380">
        <ele>594.087</ele>
        <time>2020-10-02T10:24:06Z</time>
      </trkpt>
      <trkpt lat="40.883539" lon="0.268929">
        <ele>587.165</ele>
        <time>2020-10-02T10:24:46Z</time>
      </trkpt>
      <trkpt lat="40.882809" lon="0.268714">
        <ele>592.757</ele>
        <time>2020-10-02T10:25:26Z</time>
      </trkpt>
      <trkpt lat="40.882112" lon="0.268586">
        <ele>594.669</ele>
        <time>2020-10-02T10:26:06Z</time>
      </trkpt>
      <trkpt lat="40.881349" lon="0.268135">
        <ele>599.725</ele>
        <time>2020-10-02T10:26:46Z</time>
      </trkpt>
      <trkpt lat="40.880976" lon="0.267727">
        <ele>596.578</ele>
        <time>2020-10-02T10:27:26Z</time>
      </trkpt>
      <trkpt lat="40.880700" lon="0.267491">
        <ele>596.433</ele>
        <time>2020-10-02T10:28:06Z</time>
      </trkpt>
      <trkpt lat="40.880181" lon="0.266848">
        <ele>594.226</ele>
        <time>2020-10-02T10:28:46Z</time>
      </trkpt>
      <trkpt lat="40.879532" lon="0.266225">
        <ele>603.108</ele>
        <time>2020-10-02T10:29:26Z</time>
      </trkpt>
      <trkpt lat="40.879256" lon="0.265603">
        <ele>605.162</ele>
        <time>2020-10-02T10:30:06Z</time>
      </trkpt>
      <trkpt lat="40.878851" lon="0.265045">
        <ele>604.934</ele>
        <time>2020-10-02T10:30:46Z</time>
      </trkpt>
      <trkpt lat="40.878413" lon="0.264487">
        <ele>605.383</ele>
        <time>2020-10-02T10:31:26Z</time>
      </trkpt>
      <trkpt lat="40.877553" lon="0.263972">
        <ele>603.226</ele>
        <time>2020-10-02T10:32:06Z</time>
      </trkpt>
      <trkpt lat="40.876936" lon="0.264208">
        <ele>597.554</ele>
        <time>2020-10-02T10:32:46Z</time>
      </trkpt>
      <trkpt lat="40.876060" lon="0.263865">
        <ele>588.116</ele>
        <time>2020-10-02T10:33:26Z</time>
      </trkpt>
      <trkpt lat="40.875606" lon="0.263629">
        <ele>583.858</ele>
        <time>2020-10-02T10:34:06Z</time>
      </trkpt>
      <trkpt lat="40.875135" lon="0.263629">
        <ele>578.794</ele>
        <time>2020-10-02T10:34:46Z</time>
      </trkpt>
      <trkpt lat="40.874730" lon="0.263543">
        <ele>577.359</ele>
        <time>2020-10-02T10:35:26Z</time>
      </trkpt>
      <trkpt lat="40.874422" lon="0.263028">
        <ele>578.603</ele>
        <time>2020-10-02T10:36:06Z</time>
      </trkpt>
      <trkpt lat="40.873399" lon="0.262470">
        <ele>599.523</ele>
        <time>2020-10-02T10:36:46Z</time>
      </trkpt>
      <trkpt lat="40.872767" lon="0.262277">
        <ele>593.208</ele>
        <time>2020-10-02T10:37:26Z</time>
      </trkpt>
      <trkpt lat="40.872118" lon="0.261912">
        <ele>580.260</ele>
        <time>2020-10-02T10:38:06Z</time>
      </trkpt>
      <trkpt lat="40.871404" lon="0.261247">
        <ele>568.892</ele>
        <time>2020-10-02T10:38:46Z</time>
      </trkpt>
      <trkpt lat="40.870982" lon="0.260818">
        <ele>569.941</ele>
        <time>2020-10-02T10:39:26Z</time>
      </trkpt>
      <trkpt lat="40.870495" lon="0.260711">
        <ele>565.844</ele>
        <time>2020-10-02T10:40:06Z</time>
      </trkpt>
      <trkpt lat="40.869813" lon="0.260346">
        <ele>561.272</ele>
        <time>2020-10-02T10:40:46Z</time>
      </trkpt>
      <trkpt lat="40.869375" lon="0.260153">
        <ele>552.474</ele>
        <time>2020-10-02T10:41:26Z</time>
      </trkpt>
      <trkpt lat="40.868840" lon="0.260067">
        <ele>538.866</ele>
        <time>2020-10-02T10:42:06Z</time>
      </trkpt>
      <trkpt lat="40.868694" lon="0.260346">
        <ele>542.232</ele>
        <time>2020-10-02T10:42:46Z</time>
      </trkpt>
      <trkpt lat="40.868256" lon="0.261161">
        <ele>548.238</ele>
        <time>2020-10-02T10:43:26Z</time>
      </trkpt>
      <trkpt lat="40.868077" lon="0.261719">
        <ele>558.970</ele>
        <time>2020-10-02T10:44:06Z</time>
      </trkpt>
      <trkpt lat="40.867688" lon="0.261719">
        <ele>551.617</ele>
        <time>2020-10-02T10:44:46Z</time>
      </trkpt>
      <trkpt lat="40.867201" lon="0.262234">
        <ele>556.908</ele>
        <time>2020-10-02T10:45:26Z</time>
      </trkpt>
      <trkpt lat="40.866909" lon="0.262706">
        <ele>559.948</ele>
        <time>2020-10-02T10:46:06Z</time>
      </trkpt>
      <trkpt lat="40.866666" lon="0.263543">
        <ele>562.090</ele>
        <time>2020-10-02T10:46:46Z</time>
      </trkpt>
      <trkpt lat="40.866406" lon="0.264316">
        <ele>554.259</ele>
        <time>2020-10-02T10:47:26Z</time>
      </trkpt>
      <trkpt lat="40.866747" lon="0.265260">
        <ele>566.472</ele>
        <time>2020-10-02T10:48:06Z</time>
      </trkpt>
      <trkpt lat="40.866909" lon="0.265903">
        <ele>565.660</ele>
        <time>2020-10-02T10:48:46Z</time>
      </trkpt>
      <trkpt lat="40.866893" lon="0.266805">
        <ele>556.772</ele>
        <time>2020-10-02T10:49:26Z</time>
      </trkpt>
      <trkpt lat="40.866779" lon="0.267599">
        <ele>558.594</ele>
        <time>2020-10-02T10:50:06Z</time>
      </trkpt>
      <trkpt lat="40.866958" lon="0.268307">
        <ele>558.410</ele>
        <time>2020-10-02T10:50:46Z</time>
      </trkpt>
      <trkpt lat="40.867169" lon="0.268993">
        <ele>576.081</ele>
        <time>2020-10-02T10:51:26Z</time>
      </trkpt>
      <trkpt lat="40.867152" lon="0.269723">
        <ele>581.761</ele>
        <time>2020-10-02T10:52:06Z</time>
      </trkpt>
      <trkpt lat="40.867006" lon="0.270238">
        <ele>574.217</ele>
        <time>2020-10-02T10:52:46Z</time>
      </trkpt>
      <trkpt lat="40.866747" lon="0.270796">
        <ele>570.808</ele>
        <time>2020-10-02T10:53:26Z</time>
      </trkpt>
      <trkpt lat="40.866406" lon="0.271761">
        <ele>575.433</ele>
        <time>2020-10-02T10:54:06Z</time>
      </trkpt>
      <trkpt lat="40.866390" lon="0.272105">
        <ele>574.625</ele>
        <time>2020-10-02T10:54:46Z</time>
      </trkpt>
      <trkpt lat="40.866081" lon="0.272148">
        <ele>570.734</ele>
        <time>2020-10-02T10:55:26Z</time>
      </trkpt>
      <trkpt lat="40.865919" lon="0.272834">
        <ele>574.887</ele>
        <time>2020-10-02T10:56:06Z</time>
      </trkpt>
      <trkpt lat="40.865903" lon="0.273457">
        <ele>581.825</ele>
        <time>2020-10-02T10:56:46Z</time>
      </trkpt>
      <trkpt lat="40.865546" lon="0.273843">
        <ele>573.427</ele>
        <time>2020-10-02T10:57:26Z</time>
      </trkpt>
      <trkpt lat="40.865156" lon="0.274036">
        <ele>574.219</ele>
        <time>2020-10-02T10:58:06Z</time>
      </trkpt>
      <trkpt lat="40.864718" lon="0.274122">
        <ele>573.835</ele>
        <time>2020-10-02T10:58:46Z</time>
      </trkpt>
      <trkpt lat="40.864264" lon="0.274079">
        <ele>572.566</ele>
        <time>2020-10-02T10:59:26Z</time>
      </trkpt>
      <trkpt lat="40.863680" lon="0.274551">
        <ele>575.129</ele>
        <time>2020-10-02T11:00:06Z</time>
      </trkpt>
      <trkpt lat="40.863112" lon="0.274637">
        <ele>576.521</ele>
        <time>2020-10-02T11:00:46Z</time>
      </trkpt>
      <trkpt lat="40.862625" lon="0.274572">
        <ele>577.308</ele>
        <time>2020-10-02T11:01:26Z</time>
      </trkpt>
      <trkpt lat="40.862268" lon="0.274229">
        <ele>584.511</ele>
        <time>2020-10-02T11:02:06Z</time>
      </trkpt>
      <trkpt lat="40.861846" lon="0.273886">
        <ele>590.463</ele>
        <time>2020-10-02T11:02:46Z</time>
      </trkpt>
      <trkpt lat="40.861343" lon="0.273542">
        <ele>593.462</ele>
        <time>2020-10-02T11:03:26Z</time>
      </trkpt>
      <trkpt lat="40.861116" lon="0.272856">
        <ele>596.425</ele>
        <time>2020-10-02T11:04:06Z</time>
      </trkpt>
      <trkpt lat="40.860791" lon="0.271890">
        <ele>600.413</ele>
        <time>2020-10-02T11:04:46Z</time>
      </trkpt>
      <trkpt lat="40.860548" lon="0.271418">
        <ele>602.585</ele>
        <time>2020-10-02T11:05:26Z</time>
      </trkpt>
      <trkpt lat="40.860109" lon="0.270946">
        <ele>604.277</ele>
        <time>2020-10-02T11:06:06Z</time>
      </trkpt>
      <trkpt lat="40.859931" lon="0.270474">
        <ele>604.873</ele>
        <time>2020-10-02T11:06:46Z</time>
      </trkpt>
      <trkpt lat="40.859493" lon="0.269959">
        <ele>617.724</ele>
        <time>2020-10-02T11:07:26Z</time>
      </trkpt>
      <trkpt lat="40.859477" lon="0.269423">
        <ele>626.904</ele>
        <time>2020-10-02T11:08:06Z</time>
      </trkpt>
      <trkpt lat="40.859460" lon="0.268929">
        <ele>633.814</ele>
        <time>2020-10-02T11:08:46Z</time>
      </trkpt>
      <trkpt lat="40.858973" lon="0.268843">
        <ele>640.808</ele>
        <time>2020-10-02T11:09:26Z</time>
      </trkpt>
      <trkpt lat="40.858779" lon="0.268908">
        <ele>645.397</ele>
        <time>2020-10-02T11:10:06Z</time>
      </trkpt>
      <trkpt lat="40.858584" lon="0.268478">
        <ele>654.869</ele>
        <time>2020-10-02T11:10:46Z</time>
      </trkpt>
      <trkpt lat="40.858324" lon="0.268006">
        <ele>669.118</ele>
        <time>2020-10-02T11:11:26Z</time>
      </trkpt>
      <trkpt lat="40.857805" lon="0.267234">
        <ele>696.091</ele>
        <time>2020-10-02T11:12:06Z</time>
      </trkpt>
      <trkpt lat="40.857675" lon="0.266697">
        <ele>705.769</ele>
        <time>2020-10-02T11:12:46Z</time>
      </trkpt>
      <trkpt lat="40.857432" lon="0.266440">
        <ele>714.761</ele>
        <time>2020-10-02T11:13:26Z</time>
      </trkpt>
      <trkpt lat="40.857237" lon="0.265989">
        <ele>728.913</ele>
        <time>2020-10-02T11:14:06Z</time>
      </trkpt>
      <trkpt lat="40.856685" lon="0.265539">
        <ele>721.869</ele>
        <time>2020-10-02T11:14:46Z</time>
      </trkpt>
      <trkpt lat="40.856718" lon="0.264916">
        <ele>712.073</ele>
        <time>2020-10-02T11:15:26Z</time>
      </trkpt>
      <trkpt lat="40.856393" lon="0.264616">
        <ele>699.485</ele>
        <time>2020-10-02T11:16:06Z</time>
      </trkpt>
      <trkpt lat="40.856409" lon="0.264316">
        <ele>696.813</ele>
        <time>2020-10-02T11:16:46Z</time>
      </trkpt>
      <trkpt lat="40.855825" lon="0.263994">
        <ele>684.308</ele>
        <time>2020-10-02T11:17:26Z</time>
      </trkpt>
      <trkpt lat="40.855630" lon="0.263586">
        <ele>670.432</ele>
        <time>2020-10-02T11:18:06Z</time>
      </trkpt>
      <trkpt lat="40.855630" lon="0.262856">
        <ele>661.364</ele>
        <time>2020-10-02T11:18:46Z</time>
      </trkpt>
      <trkpt lat="40.855517" lon="0.262341">
        <ele>655.073</ele>
        <time>2020-10-02T11:19:26Z</time>
      </trkpt>
      <trkpt lat="40.855160" lon="0.261891">
        <ele>643.586</ele>
        <time>2020-10-02T11:20:06Z</time>
      </trkpt>
      <trkpt lat="40.854916" lon="0.261569">
        <ele>634.894</ele>
        <time>2020-10-02T11:20:46Z</time>
      </trkpt>
      <trkpt lat="40.854494" lon="0.261762">
        <ele>614.536</ele>
        <time>2020-10-02T11:21:26Z</time>
      </trkpt>
      <trkpt lat="40.854267" lon="0.261312">
        <ele>613.138</ele>
        <time>2020-10-02T11:22:06Z</time>
      </trkpt>
      <trkpt lat="40.853991" lon="0.260925">
        <ele>611.164</ele>
        <time>2020-10-02T11:22:46Z</time>
      </trkpt>
      <trkpt lat="40.853553" lon="0.260861">
        <ele>599.447</ele>
        <time>2020-10-02T11:23:26Z</time>
      </trkpt>
      <trkpt lat="40.852855" lon="0.260603">
        <ele>602.829</ele>
        <time>2020-10-02T11:24:06Z</time>
      </trkpt>
      <trkpt lat="40.852595" lon="0.260174">
        <ele>603.421</ele>
        <time>2020-10-02T11:24:46Z</time>
      </trkpt>
      <trkpt lat="40.852141" lon="0.259402">
        <ele>598.208</ele>
        <time>2020-10-02T11:25:26Z</time>
      </trkpt>
      <trkpt lat="40.852076" lon="0.259016">
        <ele>596.699</ele>
        <time>2020-10-02T11:26:06Z</time>
      </trkpt>
      <trkpt lat="40.852189" lon="0.258243">
        <ele>589.731</ele>
        <time>2020-10-02T11:26:46Z</time>
      </trkpt>
      <trkpt lat="40.852092" lon="0.257492">
        <ele>579.920</ele>
        <time>2020-10-02T11:27:26Z</time>
      </trkpt>
      <trkpt lat="40.852173" lon="0.256891">
        <ele>571.763</ele>
        <time>2020-10-02T11:28:06Z</time>
      </trkpt>
      <trkpt lat="40.852400" lon="0.256290">
        <ele>566.681</ele>
        <time>2020-10-02T11:28:46Z</time>
      </trkpt>
      <trkpt lat="40.852027" lon="0.256205">
        <ele>564.313</ele>
        <time>2020-10-02T11:29:26Z</time>
      </trkpt>
      <trkpt lat="40.851410" lon="0.255947">
        <ele>566.985</ele>
        <time>2020-10-02T11:30:06Z</time>
      </trkpt>
      <trkpt lat="40.850940" lon="0.255733">
        <ele>567.191</ele>
        <time>2020-10-02T11:30:46Z</time>
      </trkpt>
      <trkpt lat="40.850323" lon="0.255947">
        <ele>569.854</ele>
        <time>2020-10-02T11:31:26Z</time>
      </trkpt>
      <trkpt lat="40.849755" lon="0.256269">
        <ele>572.356</ele>
        <time>2020-10-02T11:32:06Z</time>
      </trkpt>
      <trkpt lat="40.849170" lon="0.256677">
        <ele>573.311</ele>
        <time>2020-10-02T11:32:46Z</time>
      </trkpt>
      <trkpt lat="40.848521" lon="0.257041">
        <ele>573.108</ele>
        <time>2020-10-02T11:33:26Z</time>
      </trkpt>
      <trkpt lat="40.848213" lon="0.257857">
        <ele>581.390</ele>
        <time>2020-10-02T11:34:06Z</time>
      </trkpt>
      <trkpt lat="40.847628" lon="0.257621">
        <ele>581.612</ele>
        <time>2020-10-02T11:34:46Z</time>
      </trkpt>
      <trkpt lat="40.847255" lon="0.257192">
        <ele>581.991</ele>
        <time>2020-10-02T11:35:26Z</time>
      </trkpt>
      <trkpt lat="40.846719" lon="0.256698">
        <ele>582.344</ele>
        <time>2020-10-02T11:36:06Z</time>
      </trkpt>
      <trkpt lat="40.846444" lon="0.256312">
        <ele>580.862</ele>
        <time>2020-10-02T11:36:46Z</time>
      </trkpt>
      <trkpt lat="40.846005" lon="0.256398">
        <ele>581.354</ele>
        <time>2020-10-02T11:37:26Z</time>
      </trkpt>
      <trkpt lat="40.845810" lon="0.256827">
        <ele>581.146</ele>
        <time>2020-10-02T11:38:06Z</time>
      </trkpt>
      <trkpt lat="40.845875" lon="0.257406">
        <ele>584.232</ele>
        <time>2020-10-02T11:38:46Z</time>
      </trkpt>
      <trkpt lat="40.845924" lon="0.258286">
        <ele>589.326</ele>
        <time>2020-10-02T11:39:26Z</time>
      </trkpt>
      <trkpt lat="40.845843" lon="0.258865">
        <ele>587.547</ele>
        <time>2020-10-02T11:40:06Z</time>
      </trkpt>
      <trkpt lat="40.845583" lon="0.259230">
        <ele>586.311</ele>
        <time>2020-10-02T11:40:46Z</time>
      </trkpt>
      <trkpt lat="40.845064" lon="0.259488">
        <ele>586.108</ele>
        <time>2020-10-02T11:41:26Z</time>
      </trkpt>
      <trkpt lat="40.844366" lon="0.259359">
        <ele>585.487</ele>
        <time>2020-10-02T11:42:06Z</time>
      </trkpt>
      <trkpt lat="40.843424" lon="0.259295">
        <ele>593.619</ele>
        <time>2020-10-02T11:42:46Z</time>
      </trkpt>
      <trkpt lat="40.842564" lon="0.259252">
        <ele>591.288</ele>
        <time>2020-10-02T11:43:26Z</time>
      </trkpt>
      <trkpt lat="40.842207" lon="0.259831">
        <ele>591.431</ele>
        <time>2020-10-02T11:44:06Z</time>
      </trkpt>
      <trkpt lat="40.841915" lon="0.260432">
        <ele>596.699</ele>
        <time>2020-10-02T11:44:46Z</time>
      </trkpt>
      <trkpt lat="40.841509" lon="0.260711">
        <ele>601.421</ele>
        <time>2020-10-02T11:45:26Z</time>
      </trkpt>
      <trkpt lat="40.841006" lon="0.260775">
        <ele>603.363</ele>
        <time>2020-10-02T11:46:06Z</time>
      </trkpt>
      <trkpt lat="40.840551" lon="0.260797">
        <ele>604.799</ele>
        <time>2020-10-02T11:46:46Z</time>
      </trkpt>
      <trkpt lat="40.839983" lon="0.260453">
        <ele>606.794</ele>
        <time>2020-10-02T11:47:26Z</time>
      </trkpt>
      <trkpt lat="40.839642" lon="0.260367">
        <ele>603.557</ele>
        <time>2020-10-02T11:48:06Z</time>
      </trkpt>
      <trkpt lat="40.839139" lon="0.260367">
        <ele>601.322</ele>
        <time>2020-10-02T11:48:46Z</time>
      </trkpt>
      <trkpt lat="40.838636" lon="0.260539">
        <ele>602.908</ele>
        <time>2020-10-02T11:49:26Z</time>
      </trkpt>
      <trkpt lat="40.838587" lon="0.261312">
        <ele>605.934</ele>
        <time>2020-10-02T11:50:06Z</time>
      </trkpt>
      <trkpt lat="40.838489" lon="0.261998">
        <ele>614.546</ele>
        <time>2020-10-02T11:50:46Z</time>
      </trkpt>
      <trkpt lat="40.838213" lon="0.262535">
        <ele>615.625</ele>
        <time>2020-10-02T11:51:26Z</time>
      </trkpt>
      <trkpt lat="40.837743" lon="0.262578">
        <ele>609.148</ele>
        <time>2020-10-02T11:52:06Z</time>
      </trkpt>
      <trkpt lat="40.837288" lon="0.261869">
        <ele>607.556</ele>
        <time>2020-10-02T11:52:46Z</time>
      </trkpt>
      <trkpt lat="40.836915" lon="0.261548">
        <ele>609.988</ele>
        <time>2020-10-02T11:53:26Z</time>
      </trkpt>
      <trkpt lat="40.836428" lon="0.261912">
        <ele>610.920</ele>
        <time>2020-10-02T11:54:06Z</time>
      </trkpt>
      <trkpt lat="40.836022" lon="0.262492">
        <ele>612.666</ele>
        <time>2020-10-02T11:54:46Z</time>
      </trkpt>
      <trkpt lat="40.835730" lon="0.263264">
        <ele>616.536</ele>
        <time>2020-10-02T11:55:26Z</time>
      </trkpt>
      <trkpt lat="40.835486" lon="0.263972">
        <ele>618.817</ele>
        <time>2020-10-02T11:56:06Z</time>
      </trkpt>
      <trkpt lat="40.835096" lon="0.264444">
        <ele>618.718</ele>
        <time>2020-10-02T11:56:46Z</time>
      </trkpt>
      <trkpt lat="40.834674" lon="0.264852">
        <ele>616.908</ele>
        <time>2020-10-02T11:57:26Z</time>
      </trkpt>
      <trkpt lat="40.834626" lon="0.265453">
        <ele>621.338</ele>
        <time>2020-10-02T11:58:06Z</time>
      </trkpt>
      <trkpt lat="40.834479" lon="0.266011">
        <ele>629.480</ele>
        <time>2020-10-02T11:58:46Z</time>
      </trkpt>
      <trkpt lat="40.833960" lon="0.266354">
        <ele>629.439</ele>
        <time>2020-10-02T11:59:26Z</time>
      </trkpt>
      <trkpt lat="40.833684" lon="0.266762">
        <ele>630.692</ele>
        <time>2020-10-02T12:00:06Z</time>
      </trkpt>
      <trkpt lat="40.833668" lon="0.267191">
        <ele>635.470</ele>
        <time>2020-10-02T12:00:46Z</time>
      </trkpt>
      <trkpt lat="40.833668" lon="0.267856">
        <ele>643.672</ele>
        <time>2020-10-02T12:01:26Z</time>
      </trkpt>
      <trkpt lat="40.833164" lon="0.267427">
        <ele>630.974</ele>
        <time>2020-10-02T12:02:06Z</time>
      </trkpt>
      <trkpt lat="40.832661" lon="0.267427">
        <ele>624.290</ele>
        <time>2020-10-02T12:02:46Z</time>
      </trkpt>
      <trkpt lat="40.832142" lon="0.267212">
        <ele>622.348</ele>
        <time>2020-10-02T12:03:26Z</time>
      </trkpt>
      <trkpt lat="40.832450" lon="0.266810">
        <ele>623.061</ele>
        <time>2020-10-02T12:04:06Z</time>
      </trkpt>
      <trkpt lat="40.832584" lon="0.266880">
        <ele>622.546</ele>
        <time>2020-10-02T09:47:43Z</time>
      </trkpt>
      <trkpt lat="40.832921" lon="0.266547">
        <ele>624.688</ele>
        <time>2020-10-02T09:48:23Z</time>
      </trkpt>
      <trkpt lat="40.833302" lon="0.266118">
        <ele>624.616</ele>
        <time>2020-10-02T09:49:03Z</time>
      </trkpt>
      <trkpt lat="40.833587" lon="0.265871">
        <ele>622.508</ele>
        <time>2020-10-02T09:49:43Z</time>
      </trkpt>
      <trkpt lat="40.833798" lon="0.265592">
        <ele>618.869</ele>
        <time>2020-10-02T09:50:23Z</time>
      </trkpt>
      <trkpt lat="40.834041" lon="0.265378">
        <ele>615.381</ele>
        <time>2020-10-02T09:51:03Z</time>
      </trkpt>
      <trkpt lat="40.834220" lon="0.264970">
        <ele>613.522</ele>
        <time>2020-10-02T09:51:43Z</time>
      </trkpt>
      <trkpt lat="40.834617" lon="0.264788">
        <ele>615.874</ele>
        <time>2020-10-02T09:52:23Z</time>
      </trkpt>
      <trkpt lat="40.834593" lon="0.265185">
        <ele>618.852</ele>
        <time>2020-10-02T09:53:03Z</time>
      </trkpt>
      <trkpt lat="40.834642" lon="0.265346">
        <ele>620.968</ele>
        <time>2020-10-02T09:53:43Z</time>
      </trkpt>
      <trkpt lat="40.834593" lon="0.265496">
        <ele>621.263</ele>
        <time>2020-10-02T09:54:23Z</time>
      </trkpt>
      <trkpt lat="40.834439" lon="0.265957">
        <ele>628.229</ele>
        <time>2020-10-02T09:55:03Z</time>
      </trkpt>
      <trkpt lat="40.834285" lon="0.266086">
        <ele>628.888</ele>
        <time>2020-10-02T09:55:43Z</time>
      </trkpt>
      <trkpt lat="40.833952" lon="0.266300">
        <ele>628.624</ele>
        <time>2020-10-02T09:56:23Z</time>
      </trkpt>
      <trkpt lat="40.833773" lon="0.266515">
        <ele>629.126</ele>
        <time>2020-10-02T09:57:03Z</time>
      </trkpt>
      <trkpt lat="40.833635" lon="0.266815">
        <ele>630.408</ele>
        <time>2020-10-02T09:57:43Z</time>
      </trkpt>
      <trkpt lat="40.833635" lon="0.267545">
        <ele>639.133</ele>
        <time>2020-10-02T09:58:23Z</time>
      </trkpt>
      <trkpt lat="40.833684" lon="0.267781">
        <ele>643.395</ele>
        <time>2020-10-02T09:59:03Z</time>
      </trkpt>
      <trkpt lat="40.833879" lon="0.267974">
        <ele>648.286</ele>
        <time>2020-10-02T09:59:43Z</time>
      </trkpt>
      <trkpt lat="40.834033" lon="0.268350">
        <ele>653.498</ele>
        <time>2020-10-02T10:00:23Z</time>
      </trkpt>
      <trkpt lat="40.834236" lon="0.268822">
        <ele>665.536</ele>
        <time>2020-10-02T10:01:03Z</time>
      </trkpt>
      <trkpt lat="40.834382" lon="0.269197">
        <ele>669.742</ele>
        <time>2020-10-02T10:01:43Z</time>
      </trkpt>
      <trkpt lat="40.834398" lon="0.269305">
        <ele>671.327</ele>
        <time>2020-10-02T10:02:23Z</time>
      </trkpt>
      <trkpt lat="40.834496" lon="0.269530">
        <ele>675.263</ele>
        <time>2020-10-02T10:03:03Z</time>
      </trkpt>
      <trkpt lat="40.834544" lon="0.269777">
        <ele>679.871</ele>
        <time>2020-10-02T10:03:43Z</time>
      </trkpt>
      <trkpt lat="40.834471" lon="0.270023">
        <ele>684.241</ele>
        <time>2020-10-02T10:04:23Z</time>
      </trkpt>
      <trkpt lat="40.834561" lon="0.270571">
        <ele>689.015</ele>
        <time>2020-10-02T10:05:03Z</time>
      </trkpt>
      <trkpt lat="40.834739" lon="0.271075">
        <ele>698.708</ele>
        <time>2020-10-02T10:05:43Z</time>
      </trkpt>
      <trkpt lat="40.834902" lon="0.271450">
        <ele>709.252</ele>
        <time>2020-10-02T10:06:23Z</time>
      </trkpt>
      <trkpt lat="40.834991" lon="0.271643">
        <ele>713.684</ele>
        <time>2020-10-02T10:07:03Z</time>
      </trkpt>
      <trkpt lat="40.835088" lon="0.272169">
        <ele>727.775</ele>
        <time>2020-10-02T10:07:43Z</time>
      </trkpt>
      <trkpt lat="40.835316" lon="0.272502">
        <ele>737.687</ele>
        <time>2020-10-02T10:08:23Z</time>
      </trkpt>
      <trkpt lat="40.835551" lon="0.272695">
        <ele>743.115</ele>
        <time>2020-10-02T10:09:03Z</time>
      </trkpt>
      <trkpt lat="40.835835" lon="0.272856">
        <ele>748.531</ele>
        <time>2020-10-02T10:09:43Z</time>
      </trkpt>
      <trkpt lat="40.836241" lon="0.272942">
        <ele>755.536</ele>
        <time>2020-10-02T10:10:23Z</time>
      </trkpt>
      <trkpt lat="40.836720" lon="0.272598">
        <ele>762.012</ele>
        <time>2020-10-02T10:11:03Z</time>
      </trkpt>
      <trkpt lat="40.836809" lon="0.272137">
        <ele>764.338</ele>
        <time>2020-10-02T10:11:43Z</time>
      </trkpt>
      <trkpt lat="40.836898" lon="0.271858">
        <ele>767.470</ele>
        <time>2020-10-02T10:12:23Z</time>
      </trkpt>
      <trkpt lat="40.836874" lon="0.271697">
        <ele>767.817</ele>
        <time>2020-10-02T10:13:03Z</time>
      </trkpt>
      <trkpt lat="40.837077" lon="0.271515">
        <ele>774.108</ele>
        <time>2020-10-02T10:13:43Z</time>
      </trkpt>
      <trkpt lat="40.837418" lon="0.271536">
        <ele>782.248</ele>
        <time>2020-10-02T10:14:23Z</time>
      </trkpt>
      <trkpt lat="40.837686" lon="0.271332">
        <ele>787.070</ele>
        <time>2020-10-02T10:15:03Z</time>
      </trkpt>
      <trkpt lat="40.838051" lon="0.271515">
        <ele>794.751</ele>
        <time>2020-10-02T10:15:43Z</time>
      </trkpt>
      <trkpt lat="40.838157" lon="0.272051">
        <ele>806.243</ele>
        <time>2020-10-02T10:16:23Z</time>
      </trkpt>
      <trkpt lat="40.838311" lon="0.272384">
        <ele>814.541</ele>
        <time>2020-10-02T10:17:03Z</time>
      </trkpt>
      <trkpt lat="40.838619" lon="0.272963">
        <ele>827.517</ele>
        <time>2020-10-02T10:17:43Z</time>
      </trkpt>
      <trkpt lat="40.838838" lon="0.273178">
        <ele>830.292</ele>
        <time>2020-10-02T10:18:23Z</time>
      </trkpt>
      <trkpt lat="40.839139" lon="0.273703">
        <ele>839.598</ele>
        <time>2020-10-02T10:19:03Z</time>
      </trkpt>
      <trkpt lat="40.839480" lon="0.273918">
        <ele>845.512</ele>
        <time>2020-10-02T10:19:43Z</time>
      </trkpt>
      <trkpt lat="40.839837" lon="0.273736">
        <ele>848.532</ele>
        <time>2020-10-02T10:20:23Z</time>
      </trkpt>
      <trkpt lat="40.839914" lon="0.273843">
        <ele>853.805</ele>
        <time>2020-10-02T10:21:03Z</time>
      </trkpt>
      <trkpt lat="40.840178" lon="0.273982">
        <ele>865.708</ele>
        <time>2020-10-02T10:21:43Z</time>
      </trkpt>
      <trkpt lat="40.840320" lon="0.274202">
        <ele>877.086</ele>
        <time>2020-10-02T10:22:23Z</time>
      </trkpt>
      <trkpt lat="40.840446" lon="0.274513">
        <ele>889.338</ele>
        <time>2020-10-02T10:23:03Z</time>
      </trkpt>
      <trkpt lat="40.840543" lon="0.274835">
        <ele>900.179</ele>
        <time>2020-10-02T10:23:43Z</time>
      </trkpt>
      <trkpt lat="40.840657" lon="0.275141">
        <ele>909.941</ele>
        <time>2020-10-02T10:24:23Z</time>
      </trkpt>
      <trkpt lat="40.841002" lon="0.275018">
        <ele>913.279</ele>
        <time>2020-10-02T10:25:03Z</time>
      </trkpt>
      <trkpt lat="40.841614" lon="0.274905">
        <ele>918.825</ele>
        <time>2020-10-02T10:25:43Z</time>
      </trkpt>
      <trkpt lat="40.842239" lon="0.275398">
        <ele>937.640</ele>
        <time>2020-10-02T10:26:23Z</time>
      </trkpt>
      <trkpt lat="40.842438" lon="0.275586">
        <ele>943.726</ele>
        <time>2020-10-02T10:27:03Z</time>
      </trkpt>
      <trkpt lat="40.842053" lon="0.275624">
        <ele>939.534</ele>
        <time>2020-10-02T10:27:43Z</time>
      </trkpt>
      <trkpt lat="40.841752" lon="0.276021">
        <ele>947.655</ele>
        <time>2020-10-02T10:28:23Z</time>
      </trkpt>
      <trkpt lat="40.841452" lon="0.276225">
        <ele>950.610</ele>
        <time>2020-10-02T10:29:03Z</time>
      </trkpt>
      <trkpt lat="40.841696" lon="0.276546">
        <ele>951.008</ele>
        <time>2020-10-02T10:29:43Z</time>
      </trkpt>
      <trkpt lat="40.841549" lon="0.277008">
        <ele>964.398</ele>
        <time>2020-10-02T10:30:23Z</time>
      </trkpt>
      <trkpt lat="40.841525" lon="0.277802">
        <ele>972.110</ele>
        <time>2020-10-02T10:31:03Z</time>
      </trkpt>
      <trkpt lat="40.841460" lon="0.278488">
        <ele>969.781</ele>
        <time>2020-10-02T10:31:43Z</time>
      </trkpt>
      <trkpt lat="40.841468" lon="0.278896">
        <ele>968.863</ele>
        <time>2020-10-02T10:32:23Z</time>
      </trkpt>
      <trkpt lat="40.841436" lon="0.279057">
        <ele>973.531</ele>
        <time>2020-10-02T10:33:03Z</time>
      </trkpt>
      <trkpt lat="40.841379" lon="0.279197">
        <ele>980.617</ele>
        <time>2020-10-02T10:33:43Z</time>
      </trkpt>
      <trkpt lat="40.841387" lon="0.279572">
        <ele>987.022</ele>
        <time>2020-10-02T10:34:23Z</time>
      </trkpt>
      <trkpt lat="40.841306" lon="0.280087">
        <ele>990.478</ele>
        <time>2020-10-02T10:35:03Z</time>
      </trkpt>
      <trkpt lat="40.841273" lon="0.280323">
        <ele>985.652</ele>
        <time>2020-10-02T10:35:43Z</time>
      </trkpt>
      <trkpt lat="40.841176" lon="0.280463">
        <ele>986.453</ele>
        <time>2020-10-02T10:36:23Z</time>
      </trkpt>
      <trkpt lat="40.840851" lon="0.280581">
        <ele>988.408</ele>
        <time>2020-10-02T10:37:03Z</time>
      </trkpt>
      <trkpt lat="40.840543" lon="0.280634">
        <ele>989.608</ele>
        <time>2020-10-02T10:37:43Z</time>
      </trkpt>
      <trkpt lat="40.840364" lon="0.280731">
        <ele>991.310</ele>
        <time>2020-10-02T10:38:23Z</time>
      </trkpt>
      <trkpt lat="40.840235" lon="0.281010">
        <ele>991.062</ele>
        <time>2020-10-02T10:39:03Z</time>
      </trkpt>
      <trkpt lat="40.840170" lon="0.281332">
        <ele>994.573</ele>
        <time>2020-10-02T10:39:43Z</time>
      </trkpt>
      <trkpt lat="40.840267" lon="0.281471">
        <ele>995.645</ele>
        <time>2020-10-02T10:40:23Z</time>
      </trkpt>
      <trkpt lat="40.840437" lon="0.281171">
        <ele>991.123</ele>
        <time>2020-10-02T10:41:03Z</time>
      </trkpt>
      <trkpt lat="40.840827" lon="0.281042">
        <ele>988.839</ele>
        <time>2020-10-02T10:41:43Z</time>
      </trkpt>
      <trkpt lat="40.841087" lon="0.281235">
        <ele>988.554</ele>
        <time>2020-10-02T10:42:23Z</time>
      </trkpt>
      <trkpt lat="40.841298" lon="0.281557">
        <ele>995.820</ele>
        <time>2020-10-02T10:43:03Z</time>
      </trkpt>
      <trkpt lat="40.841598" lon="0.282007">
        <ele>1008.515</ele>
        <time>2020-10-02T10:43:43Z</time>
      </trkpt>
      <trkpt lat="40.841850" lon="0.282415">
        <ele>1012.365</ele>
        <time>2020-10-02T10:44:23Z</time>
      </trkpt>
      <trkpt lat="40.842126" lon="0.282930">
        <ele>1007.011</ele>
        <time>2020-10-02T10:45:03Z</time>
      </trkpt>
      <trkpt lat="40.842564" lon="0.282952">
        <ele>1009.708</ele>
        <time>2020-10-02T10:45:43Z</time>
      </trkpt>
      <trkpt lat="40.842856" lon="0.283048">
        <ele>1018.256</ele>
        <time>2020-10-02T10:46:23Z</time>
      </trkpt>
      <trkpt lat="40.843067" lon="0.282705">
        <ele>1009.048</ele>
        <time>2020-10-02T10:47:03Z</time>
      </trkpt>
      <trkpt lat="40.843132" lon="0.283188">
        <ele>1025.179</ele>
        <time>2020-10-02T10:47:43Z</time>
      </trkpt>
      <trkpt lat="40.843156" lon="0.283552">
        <ele>1032.121</ele>
        <time>2020-10-02T10:48:23Z</time>
      </trkpt>
      <trkpt lat="40.843140" lon="0.283788">
        <ele>1033.829</ele>
        <time>2020-10-02T10:49:03Z</time>
      </trkpt>
      <trkpt lat="40.843339" lon="0.283788">
        <ele>1042.055</ele>
        <time>2020-10-02T10:49:43Z</time>
      </trkpt>
      <trkpt lat="40.843428" lon="0.283633">
        <ele>1040.570</ele>
        <time>2020-10-02T10:50:23Z</time>
      </trkpt>
      <trkpt lat="40.843570" lon="0.283477">
        <ele>1034.646</ele>
        <time>2020-10-02T10:51:03Z</time>
      </trkpt>
      <trkpt lat="40.843627" lon="0.283692">
        <ele>1043.291</ele>
        <time>2020-10-02T10:51:43Z</time>
      </trkpt>
      <trkpt lat="40.843765" lon="0.284153">
        <ele>1059.781</ele>
        <time>2020-10-02T10:52:23Z</time>
      </trkpt>
      <trkpt lat="40.844130" lon="0.284411">
        <ele>1060.619</ele>
        <time>2020-10-02T10:53:03Z</time>
      </trkpt>
      <trkpt lat="40.844293" lon="0.284357">
        <ele>1045.108</ele>
        <time>2020-10-02T10:53:43Z</time>
      </trkpt>
      <trkpt lat="40.844386" lon="0.284491">
        <ele>1041.774</ele>
        <time>2020-10-02T10:54:23Z</time>
      </trkpt>
      <trkpt lat="40.844569" lon="0.284781">
        <ele>1033.186</ele>
        <time>2020-10-02T10:55:03Z</time>
      </trkpt>
      <trkpt lat="40.844719" lon="0.285237">
        <ele>1037.717</ele>
        <time>2020-10-02T10:55:43Z</time>
      </trkpt>
      <trkpt lat="40.844893" lon="0.285253">
        <ele>1019.699</ele>
        <time>2020-10-02T10:56:23Z</time>
      </trkpt>
      <trkpt lat="40.844954" lon="0.285387">
        <ele>1022.177</ele>
        <time>2020-10-02T10:57:03Z</time>
      </trkpt>
      <trkpt lat="40.844983" lon="0.285575">
        <ele>1032.973</ele>
        <time>2020-10-02T10:57:43Z</time>
      </trkpt>
      <trkpt lat="40.845100" lon="0.285730">
        <ele>1033.368</ele>
        <time>2020-10-02T10:58:23Z</time>
      </trkpt>
      <trkpt lat="40.845413" lon="0.286160">
        <ele>1035.264</ele>
        <time>2020-10-02T10:59:03Z</time>
      </trkpt>
      <trkpt lat="40.845551" lon="0.286320">
        <ele>1028.429</ele>
        <time>2020-10-02T10:59:43Z</time>
      </trkpt>
      <trkpt lat="40.845445" lon="0.286503">
        <ele>1041.900</ele>
        <time>2020-10-02T11:00:23Z</time>
      </trkpt>
      <trkpt lat="40.845421" lon="0.286685">
        <ele>1045.120</ele>
        <time>2020-10-02T11:01:03Z</time>
      </trkpt>
      <trkpt lat="40.845169" lon="0.286793">
        <ele>1064.608</ele>
        <time>2020-10-02T11:01:43Z</time>
      </trkpt>
      <trkpt lat="40.844999" lon="0.286825">
        <ele>1076.987</ele>
        <time>2020-10-02T11:02:23Z</time>
      </trkpt>
      <trkpt lat="40.844845" lon="0.286900">
        <ele>1083.369</ele>
        <time>2020-10-02T11:03:03Z</time>
      </trkpt>
      <trkpt lat="40.844837" lon="0.287071">
        <ele>1082.920</ele>
        <time>2020-10-02T11:03:43Z</time>
      </trkpt>
      <trkpt lat="40.844780" lon="0.287222">
        <ele>1084.572</ele>
        <time>2020-10-02T11:04:23Z</time>
      </trkpt>
      <trkpt lat="40.844609" lon="0.286986">
        <ele>1093.460</ele>
        <time>2020-10-02T11:05:03Z</time>
      </trkpt>
      <trkpt lat="40.844512" lon="0.286642">
        <ele>1094.996</ele>
        <time>2020-10-02T11:05:43Z</time>
      </trkpt>
      <trkpt lat="40.844277" lon="0.286621">
        <ele>1096.471</ele>
        <time>2020-10-02T11:06:23Z</time>
      </trkpt>
      <trkpt lat="40.844139" lon="0.286825">
        <ele>1098.727</ele>
        <time>2020-10-02T11:07:03Z</time>
      </trkpt>
      <trkpt lat="40.844017" lon="0.286996">
        <ele>1099.086</ele>
        <time>2020-10-02T11:07:43Z</time>
      </trkpt>
      <trkpt lat="40.843554" lon="0.287372">
        <ele>1098.060</ele>
        <time>2020-10-02T11:08:23Z</time>
      </trkpt>
      <trkpt lat="40.843213" lon="0.287629">
        <ele>1106.126</ele>
        <time>2020-10-02T11:09:03Z</time>
      </trkpt>
      <trkpt lat="40.843075" lon="0.287747">
        <ele>1112.508</ele>
        <time>2020-10-02T11:09:43Z</time>
      </trkpt>
      <trkpt lat="40.843051" lon="0.287951">
        <ele>1119.173</ele>
        <time>2020-10-02T11:10:23Z</time>
      </trkpt>
      <trkpt lat="40.842937" lon="0.288112">
        <ele>1124.725</ele>
        <time>2020-10-02T11:11:03Z</time>
      </trkpt>
      <trkpt lat="40.842783" lon="0.288273">
        <ele>1128.536</ele>
        <time>2020-10-02T11:11:43Z</time>
      </trkpt>
      <trkpt lat="40.842637" lon="0.288252">
        <ele>1132.938</ele>
        <time>2020-10-02T11:12:23Z</time>
      </trkpt>
      <trkpt lat="40.842345" lon="0.288498">
        <ele>1148.596</ele>
        <time>2020-10-02T11:13:03Z</time>
      </trkpt>
      <trkpt lat="40.842174" lon="0.288541">
        <ele>1154.412</ele>
        <time>2020-10-02T11:13:43Z</time>
      </trkpt>
      <trkpt lat="40.842004" lon="0.288949">
        <ele>1160.747</ele>
        <time>2020-10-02T11:14:23Z</time>
      </trkpt>
      <trkpt lat="40.841874" lon="0.289282">
        <ele>1167.063</ele>
        <time>2020-10-02T11:15:03Z</time>
      </trkpt>
      <trkpt lat="40.841890" lon="0.290183">
        <ele>1174.589</ele>
        <time>2020-10-02T11:15:43Z</time>
      </trkpt>
      <trkpt lat="40.841614" lon="0.290805">
        <ele>1173.206</ele>
        <time>2020-10-02T11:16:23Z</time>
      </trkpt>
      <trkpt lat="40.841030" lon="0.290977">
        <ele>1171.226</ele>
        <time>2020-10-02T11:17:03Z</time>
      </trkpt>
      <trkpt lat="40.840941" lon="0.290966">
        <ele>1170.208</ele>
        <time>2020-10-02T11:17:43Z</time>
      </trkpt>
      <trkpt lat="40.841022" lon="0.291395">
        <ele>1165.763</ele>
        <time>2020-10-02T11:18:23Z</time>
      </trkpt>
      <trkpt lat="40.841038" lon="0.291803">
        <ele>1162.955</ele>
        <time>2020-10-02T11:19:03Z</time>
      </trkpt>
      <trkpt lat="40.841038" lon="0.292168">
        <ele>1161.646</ele>
        <time>2020-10-02T11:19:43Z</time>
      </trkpt>
      <trkpt lat="40.840908" lon="0.292704">
        <ele>1156.768</ele>
        <time>2020-10-02T11:20:23Z</time>
      </trkpt>
      <trkpt lat="40.840730" lon="0.293219">
        <ele>1151.926</ele>
        <time>2020-10-02T11:21:03Z</time>
      </trkpt>
      <trkpt lat="40.840340" lon="0.293605">
        <ele>1141.692</ele>
        <time>2020-10-02T11:21:43Z</time>
      </trkpt>
      <trkpt lat="40.840048" lon="0.293841">
        <ele>1136.377</ele>
        <time>2020-10-02T11:22:23Z</time>
      </trkpt>
      <trkpt lat="40.840194" lon="0.294464">
        <ele>1132.433</ele>
        <time>2020-10-02T11:23:03Z</time>
      </trkpt>
      <trkpt lat="40.840291" lon="0.294871">
        <ele>1131.533</ele>
        <time>2020-10-02T11:23:43Z</time>
      </trkpt>
      <trkpt lat="40.840957" lon="0.295472">
        <ele>1127.623</ele>
        <time>2020-10-02T11:24:23Z</time>
      </trkpt>
      <trkpt lat="40.840957" lon="0.295901">
        <ele>1126.915</ele>
        <time>2020-10-02T11:25:03Z</time>
      </trkpt>
      <trkpt lat="40.841444" lon="0.296674">
        <ele>1128.908</ele>
        <time>2020-10-02T11:25:43Z</time>
      </trkpt>
      <trkpt lat="40.841736" lon="0.297060">
        <ele>1131.998</ele>
        <time>2020-10-02T11:26:23Z</time>
      </trkpt>
      <trkpt lat="40.842142" lon="0.297575">
        <ele>1142.340</ele>
        <time>2020-10-02T11:27:03Z</time>
      </trkpt>
      <trkpt lat="40.842596" lon="0.298026">
        <ele>1126.471</ele>
        <time>2020-10-02T11:27:43Z</time>
      </trkpt>
      <trkpt lat="40.843148" lon="0.298755">
        <ele>1114.293</ele>
        <time>2020-10-02T11:28:23Z</time>
      </trkpt>
      <trkpt lat="40.843538" lon="0.299249">
        <ele>1106.511</ele>
        <time>2020-10-02T11:29:03Z</time>
      </trkpt>
      <trkpt lat="40.843408" lon="0.299485">
        <ele>1109.767</ele>
        <time>2020-10-02T11:29:43Z</time>
      </trkpt>
      <trkpt lat="40.843116" lon="0.299699">
        <ele>1110.192</ele>
        <time>2020-10-02T11:30:23Z</time>
      </trkpt>
      <trkpt lat="40.842905" lon="0.300000">
        <ele>1109.378</ele>
        <time>2020-10-02T11:31:03Z</time>
      </trkpt>
      <trkpt lat="40.842921" lon="0.300257">
        <ele>1104.289</ele>
        <time>2020-10-02T11:31:43Z</time>
      </trkpt>
      <trkpt lat="40.843035" lon="0.300879">
        <ele>1074.406</ele>
        <time>2020-10-02T11:32:23Z</time>
      </trkpt>
      <trkpt lat="40.843051" lon="0.301437">
        <ele>1053.326</ele>
        <time>2020-10-02T11:33:03Z</time>
      </trkpt>
      <trkpt lat="40.843294" lon="0.302231">
        <ele>1024.108</ele>
        <time>2020-10-02T11:33:43Z</time>
      </trkpt>
      <trkpt lat="40.842986" lon="0.302660">
        <ele>1003.573</ele>
        <time>2020-10-02T11:34:23Z</time>
      </trkpt>
      <trkpt lat="40.842872" lon="0.302896">
        <ele>999.565</ele>
        <time>2020-10-02T11:35:03Z</time>
      </trkpt>
      <trkpt lat="40.843019" lon="0.303712">
        <ele>980.186</ele>
        <time>2020-10-02T11:35:43Z</time>
      </trkpt>
      <trkpt lat="40.843213" lon="0.304334">
        <ele>966.438</ele>
        <time>2020-10-02T11:36:23Z</time>
      </trkpt>
      <trkpt lat="40.843148" lon="0.304635">
        <ele>960.466</ele>
        <time>2020-10-02T11:37:03Z</time>
      </trkpt>
      <trkpt lat="40.842824" lon="0.305300">
        <ele>930.192</ele>
        <time>2020-10-02T11:37:43Z</time>
      </trkpt>
      <trkpt lat="40.842661" lon="0.305707">
        <ele>940.617</ele>
        <time>2020-10-02T11:38:23Z</time>
      </trkpt>
      <trkpt lat="40.843246" lon="0.306480">
        <ele>923.573</ele>
        <time>2020-10-02T11:39:03Z</time>
      </trkpt>
      <trkpt lat="40.843424" lon="0.307016">
        <ele>916.429</ele>
        <time>2020-10-02T11:39:43Z</time>
      </trkpt>
      <trkpt lat="40.844025" lon="0.308282">
        <ele>895.000</ele>
        <time>2020-10-02T11:40:23Z</time>
      </trkpt>
      <trkpt lat="40.844025" lon="0.308776">
        <ele>893.320</ele>
        <time>2020-10-02T11:41:03Z</time>
      </trkpt>
      <trkpt lat="40.844333" lon="0.309162">
        <ele>879.408</ele>
        <time>2020-10-02T11:41:43Z</time>
      </trkpt>
      <trkpt lat="40.844918" lon="0.308797">
        <ele>864.217</ele>
        <time>2020-10-02T11:42:23Z</time>
      </trkpt>
      <trkpt lat="40.845908" lon="0.308883">
        <ele>860.839</ele>
        <time>2020-10-02T11:43:03Z</time>
      </trkpt>
      <trkpt lat="40.846606" lon="0.308948">
        <ele>859.370</ele>
        <time>2020-10-02T11:43:43Z</time>
      </trkpt>
      <trkpt lat="40.846931" lon="0.309527">
        <ele>855.022</ele>
        <time>2020-10-02T11:44:23Z</time>
      </trkpt>
      <trkpt lat="40.847304" lon="0.310407">
        <ele>854.680</ele>
        <time>2020-10-02T11:45:03Z</time>
      </trkpt>
      <trkpt lat="40.847531" lon="0.310729">
        <ele>853.216</ele>
        <time>2020-10-02T11:45:43Z</time>
      </trkpt>
      <trkpt lat="40.847693" lon="0.311844">
        <ele>857.961</ele>
        <time>2020-10-02T11:46:23Z</time>
      </trkpt>
      <trkpt lat="40.847953" lon="0.312381">
        <ele>861.847</ele>
        <time>2020-10-02T11:47:03Z</time>
      </trkpt>
      <trkpt lat="40.848602" lon="0.312767">
        <ele>836.442</ele>
        <time>2020-10-02T11:47:43Z</time>
      </trkpt>
      <trkpt lat="40.848765" lon="0.313432">
        <ele>837.722</ele>
        <time>2020-10-02T11:48:23Z</time>
      </trkpt>
      <trkpt lat="40.848765" lon="0.313969">
        <ele>838.314</ele>
        <time>2020-10-02T11:49:03Z</time>
      </trkpt>
      <trkpt lat="40.848813" lon="0.314548">
        <ele>831.808</ele>
        <time>2020-10-02T11:49:43Z</time>
      </trkpt>
      <trkpt lat="40.848359" lon="0.314376">
        <ele>841.119</ele>
        <time>2020-10-02T11:50:23Z</time>
      </trkpt>
      <trkpt lat="40.847953" lon="0.314398">
        <ele>842.181</ele>
        <time>2020-10-02T11:51:03Z</time>
      </trkpt>
      <trkpt lat="40.847839" lon="0.314419">
        <ele>841.662</ele>
        <time>2020-10-02T11:51:43Z</time>
      </trkpt>
      <trkpt lat="40.848083" lon="0.314655">
        <ele>839.764</ele>
        <time>2020-10-02T11:52:23Z</time>
      </trkpt>
      <trkpt lat="40.848505" lon="0.315127">
        <ele>831.322</ele>
        <time>2020-10-02T11:53:03Z</time>
      </trkpt>
      <trkpt lat="40.848667" lon="0.315707">
        <ele>828.868</ele>
        <time>2020-10-02T11:53:43Z</time>
      </trkpt>
      <trkpt lat="40.848456" lon="0.316372">
        <ele>837.333</ele>
        <time>2020-10-02T11:54:23Z</time>
      </trkpt>
      <trkpt lat="40.849187" lon="0.316007">
        <ele>820.259</ele>
        <time>2020-10-02T11:55:03Z</time>
      </trkpt>
      <trkpt lat="40.849755" lon="0.316372">
        <ele>818.362</ele>
        <time>2020-10-02T11:55:43Z</time>
      </trkpt>
      <trkpt lat="40.849852" lon="0.316973">
        <ele>825.583</ele>
        <time>2020-10-02T11:56:23Z</time>
      </trkpt>
      <trkpt lat="40.850615" lon="0.317681">
        <ele>820.011</ele>
        <time>2020-10-02T11:57:03Z</time>
      </trkpt>
      <trkpt lat="40.851086" lon="0.318024">
        <ele>821.208</ele>
        <time>2020-10-02T11:57:43Z</time>
      </trkpt>
      <trkpt lat="40.851427" lon="0.318475">
        <ele>823.721</ele>
        <time>2020-10-02T11:58:23Z</time>
      </trkpt>
      <trkpt lat="40.851167" lon="0.319140">
        <ele>824.113</ele>
        <time>2020-10-02T11:59:03Z</time>
      </trkpt>
      <trkpt lat="40.850794" lon="0.319548">
        <ele>826.094</ele>
        <time>2020-10-02T11:59:43Z</time>
      </trkpt>
      <trkpt lat="40.850501" lon="0.320020">
        <ele>819.536</ele>
        <time>2020-10-02T12:00:23Z</time>
      </trkpt>
      <trkpt lat="40.850258" lon="0.320320">
        <ele>817.064</ele>
        <time>2020-10-02T12:01:03Z</time>
      </trkpt>
      <trkpt lat="40.850063" lon="0.320535">
        <ele>820.110</ele>
        <time>2020-10-02T12:01:43Z</time>
      </trkpt>
      <trkpt lat="40.850810" lon="0.320256">
        <ele>804.155</ele>
        <time>2020-10-02T12:02:23Z</time>
      </trkpt>
      <trkpt lat="40.851556" lon="0.320170">
        <ele>790.461</ele>
        <time>2020-10-02T12:03:03Z</time>
      </trkpt>
      <trkpt lat="40.852027" lon="0.320449">
        <ele>788.893</ele>
        <time>2020-10-02T12:03:43Z</time>
      </trkpt>
      <trkpt lat="40.852027" lon="0.321136">
        <ele>796.565</ele>
        <time>2020-10-02T12:04:23Z</time>
      </trkpt>
      <trkpt lat="40.852076" lon="0.321586">
        <ele>797.821</ele>
        <time>2020-10-02T12:05:03Z</time>
      </trkpt>
      <trkpt lat="40.852433" lon="0.321071">
        <ele>798.208</ele>
        <time>2020-10-02T12:05:43Z</time>
      </trkpt>
      <trkpt lat="40.852725" lon="0.320535">
        <ele>795.064</ele>
        <time>2020-10-02T12:06:23Z</time>
      </trkpt>
      <trkpt lat="40.853277" lon="0.321414">
        <ele>815.666</ele>
        <time>2020-10-02T12:07:03Z</time>
      </trkpt>
      <trkpt lat="40.853699" lon="0.321951">
        <ele>826.547</ele>
        <time>2020-10-02T12:07:43Z</time>
      </trkpt>
      <trkpt lat="40.853983" lon="0.322069">
        <ele>832.779</ele>
        <time>2020-10-02T12:08:23Z</time>
      </trkpt>
      <trkpt lat="40.854129" lon="0.321586">
        <ele>829.587</ele>
        <time>2020-10-02T12:09:03Z</time>
      </trkpt>
      <trkpt lat="40.854194" lon="0.321318">
        <ele>832.113</ele>
        <time>2020-10-02T12:09:43Z</time>
      </trkpt>
      <trkpt lat="40.854178" lon="0.320857">
        <ele>832.668</ele>
        <time>2020-10-02T12:10:23Z</time>
      </trkpt>
      <trkpt lat="40.854267" lon="0.320395">
        <ele>832.694</ele>
        <time>2020-10-02T12:11:03Z</time>
      </trkpt>
      <trkpt lat="40.854429" lon="0.320063">
        <ele>837.677</ele>
        <time>2020-10-02T12:11:43Z</time>
      </trkpt>
      <trkpt lat="40.854429" lon="0.320224">
        <ele>838.861</ele>
        <time>2020-10-02T12:12:23Z</time>
      </trkpt>
      <trkpt lat="40.854364" lon="0.320621">
        <ele>841.127</ele>
        <time>2020-10-02T12:13:03Z</time>
      </trkpt>
      <trkpt lat="40.854454" lon="0.321071">
        <ele>847.708</ele>
        <time>2020-10-02T12:13:43Z</time>
      </trkpt>
      <trkpt lat="40.854518" lon="0.321436">
        <ele>851.052</ele>
        <time>2020-10-02T12:14:23Z</time>
      </trkpt>
      <trkpt lat="40.854535" lon="0.321693">
        <ele>852.574</ele>
        <time>2020-10-02T12:15:03Z</time>
      </trkpt>
      <trkpt lat="40.854543" lon="0.322069">
        <ele>856.615</ele>
        <time>2020-10-02T12:15:43Z</time>
      </trkpt>
      <trkpt lat="40.854705" lon="0.322627">
        <ele>867.447</ele>
        <time>2020-10-02T12:16:23Z</time>
      </trkpt>
      <trkpt lat="40.854656" lon="0.322917">
        <ele>871.325</ele>
        <time>2020-10-02T12:17:03Z</time>
      </trkpt>
      <trkpt lat="40.854656" lon="0.323002">
        <ele>873.611</ele>
        <time>2020-10-02T12:17:43Z</time>
      </trkpt>
      <trkpt lat="40.854774" lon="0.322863">
        <ele>872.456</ele>
        <time>2020-10-02T12:18:23Z</time>
      </trkpt>
      <trkpt lat="40.854807" lon="0.322391">
        <ele>869.022</ele>
        <time>2020-10-02T12:19:03Z</time>
      </trkpt>
      <trkpt lat="40.854774" lon="0.322128">
        <ele>867.263</ele>
        <time>2020-10-02T12:19:43Z</time>
      </trkpt>
      <trkpt lat="40.854892" lon="0.321559">
        <ele>867.944</ele>
        <time>2020-10-02T12:20:23Z</time>
      </trkpt>
      <trkpt lat="40.854920" lon="0.321018">
        <ele>870.318</ele>
        <time>2020-10-02T12:21:03Z</time>
      </trkpt>
      <trkpt lat="40.854944" lon="0.320685">
        <ele>871.708</ele>
        <time>2020-10-02T12:21:43Z</time>
      </trkpt>
      <trkpt lat="40.855123" lon="0.320454">
        <ele>874.861</ele>
        <time>2020-10-02T12:22:23Z</time>
      </trkpt>
      <trkpt lat="40.855322" lon="0.320454">
        <ele>877.243</ele>
        <time>2020-10-02T12:23:03Z</time>
      </trkpt>
      <trkpt lat="40.855362" lon="0.320653">
        <ele>878.164</ele>
        <time>2020-10-02T12:23:43Z</time>
      </trkpt>
      <trkpt lat="40.855383" lon="0.321141">
        <ele>878.196</ele>
        <time>2020-10-02T12:24:23Z</time>
      </trkpt>
      <trkpt lat="40.855427" lon="0.321581">
        <ele>882.994</ele>
        <time>2020-10-02T12:25:03Z</time>
      </trkpt>
      <trkpt lat="40.855468" lon="0.321720">
        <ele>884.640</ele>
        <time>2020-10-02T12:25:43Z</time>
      </trkpt>
      <trkpt lat="40.855614" lon="0.322069">
        <ele>886.415</ele>
        <time>2020-10-02T12:26:23Z</time>
      </trkpt>
      <trkpt lat="40.856003" lon="0.322219">
        <ele>876.281</ele>
        <time>2020-10-02T12:27:03Z</time>
      </trkpt>
      <trkpt lat="40.856214" lon="0.322466">
        <ele>873.581</ele>
        <time>2020-10-02T12:27:43Z</time>
      </trkpt>
      <trkpt lat="40.856377" lon="0.322841">
        <ele>877.561</ele>
        <time>2020-10-02T12:28:23Z</time>
      </trkpt>
      <trkpt lat="40.856791" lon="0.323142">
        <ele>877.117</ele>
        <time>2020-10-02T12:29:03Z</time>
      </trkpt>
      <trkpt lat="40.857294" lon="0.323249">
        <ele>858.908</ele>
        <time>2020-10-02T12:29:43Z</time>
      </trkpt>
      <trkpt lat="40.857367" lon="0.323871">
        <ele>864.153</ele>
        <time>2020-10-02T12:30:23Z</time>
      </trkpt>
      <trkpt lat="40.857253" lon="0.324365">
        <ele>869.015</ele>
        <time>2020-10-02T12:31:03Z</time>
      </trkpt>
      <trkpt lat="40.857229" lon="0.324633">
        <ele>871.066</ele>
        <time>2020-10-02T12:31:43Z</time>
      </trkpt>
      <trkpt lat="40.857383" lon="0.325234">
        <ele>865.098</ele>
        <time>2020-10-02T12:32:23Z</time>
      </trkpt>
      <trkpt lat="40.857342" lon="0.325652">
        <ele>869.986</ele>
        <time>2020-10-02T12:33:03Z</time>
      </trkpt>
      <trkpt lat="40.857472" lon="0.326060">
        <ele>865.922</ele>
        <time>2020-10-02T12:33:43Z</time>
      </trkpt>
      <trkpt lat="40.857935" lon="0.326403">
        <ele>853.857</ele>
        <time>2020-10-02T12:34:23Z</time>
      </trkpt>
      <trkpt lat="40.858381" lon="0.326661">
        <ele>848.763</ele>
        <time>2020-10-02T12:35:03Z</time>
      </trkpt>
      <trkpt lat="40.858422" lon="0.326843">
        <ele>848.037</ele>
        <time>2020-10-02T12:35:43Z</time>
      </trkpt>
      <trkpt lat="40.858332" lon="0.326983">
        <ele>851.649</ele>
        <time>2020-10-02T12:36:23Z</time>
      </trkpt>
      <trkpt lat="40.858194" lon="0.327176">
        <ele>856.413</ele>
        <time>2020-10-02T12:37:03Z</time>
      </trkpt>
      <trkpt lat="40.858592" lon="0.326972">
        <ele>841.608</ele>
        <time>2020-10-02T12:37:43Z</time>
      </trkpt>
      <trkpt lat="40.858746" lon="0.326639">
        <ele>834.438</ele>
        <time>2020-10-02T12:38:23Z</time>
      </trkpt>
      <trkpt lat="40.858787" lon="0.326425">
        <ele>828.320</ele>
        <time>2020-10-02T12:39:03Z</time>
      </trkpt>
      <trkpt lat="40.858592" lon="0.326189">
        <ele>822.811</ele>
        <time>2020-10-02T12:39:43Z</time>
      </trkpt>
      <trkpt lat="40.858219" lon="0.326124">
        <ele>834.063</ele>
        <time>2020-10-02T12:40:23Z</time>
      </trkpt>
      <trkpt lat="40.857854" lon="0.325727">
        <ele>842.891</ele>
        <time>2020-10-02T12:41:03Z</time>
      </trkpt>
      <trkpt lat="40.858016" lon="0.325459">
        <ele>833.567</ele>
        <time>2020-10-02T12:41:43Z</time>
      </trkpt>
      <trkpt lat="40.858121" lon="0.325084">
        <ele>824.422</ele>
        <time>2020-10-02T12:42:23Z</time>
      </trkpt>
      <trkpt lat="40.857992" lon="0.324751">
        <ele>829.268</ele>
        <time>2020-10-02T12:43:03Z</time>
      </trkpt>
      <trkpt lat="40.858089" lon="0.324547">
        <ele>820.541</ele>
        <time>2020-10-02T12:43:43Z</time>
      </trkpt>
      <trkpt lat="40.858454" lon="0.324258">
        <ele>800.681</ele>
        <time>2020-10-02T12:44:23Z</time>
      </trkpt>
      <trkpt lat="40.858495" lon="0.324086">
        <ele>798.609</ele>
        <time>2020-10-02T12:45:03Z</time>
      </trkpt>
      <trkpt lat="40.858259" lon="0.323582">
        <ele>809.208</ele>
        <time>2020-10-02T12:45:43Z</time>
      </trkpt>
      <trkpt lat="40.858332" lon="0.323260">
        <ele>799.319</ele>
        <time>2020-10-02T12:46:23Z</time>
      </trkpt>
      <trkpt lat="40.858470" lon="0.322841">
        <ele>792.921</ele>
        <time>2020-10-02T12:47:03Z</time>
      </trkpt>
      <trkpt lat="40.859079" lon="0.322251">
        <ele>779.672</ele>
        <time>2020-10-02T12:47:43Z</time>
      </trkpt>
      <trkpt lat="40.859598" lon="0.322348">
        <ele>773.264</ele>
        <time>2020-10-02T12:48:23Z</time>
      </trkpt>
      <trkpt lat="40.860069" lon="0.322584">
        <ele>758.362</ele>
        <time>2020-10-02T12:49:03Z</time>
      </trkpt>
      <trkpt lat="40.860523" lon="0.322627">
        <ele>744.868</ele>
        <time>2020-10-02T12:49:43Z</time>
      </trkpt>
      <trkpt lat="40.860888" lon="0.322487">
        <ele>735.353</ele>
        <time>2020-10-02T12:50:23Z</time>
      </trkpt>
      <trkpt lat="40.860961" lon="0.322326">
        <ele>731.479</ele>
        <time>2020-10-02T12:51:03Z</time>
      </trkpt>
      <trkpt lat="40.860970" lon="0.322058">
        <ele>731.629</ele>
        <time>2020-10-02T12:51:43Z</time>
      </trkpt>
      <trkpt lat="40.860710" lon="0.321940">
        <ele>739.800</ele>
        <time>2020-10-02T12:52:23Z</time>
      </trkpt>
      <trkpt lat="40.860588" lon="0.321897">
        <ele>743.420</ele>
        <time>2020-10-02T12:53:03Z</time>
      </trkpt>
      <trkpt lat="40.860515" lon="0.321790">
        <ele>744.908</ele>
        <time>2020-10-02T12:53:43Z</time>
      </trkpt>
      <trkpt lat="40.860434" lon="0.321264">
        <ele>729.787</ele>
        <time>2020-10-02T12:54:23Z</time>
      </trkpt>
      <trkpt lat="40.859947" lon="0.320299">
        <ele>708.939</ele>
        <time>2020-10-02T12:55:03Z</time>
      </trkpt>
      <trkpt lat="40.860272" lon="0.320535">
        <ele>708.550</ele>
        <time>2020-10-02T12:55:43Z</time>
      </trkpt>
      <trkpt lat="40.860734" lon="0.321307">
        <ele>713.842</ele>
        <time>2020-10-02T12:56:23Z</time>
      </trkpt>
      <trkpt lat="40.861578" lon="0.321468">
        <ele>688.540</ele>
        <time>2020-10-02T12:57:03Z</time>
      </trkpt>
      <trkpt lat="40.861611" lon="0.321339">
        <ele>681.816</ele>
        <time>2020-10-02T12:57:43Z</time>
      </trkpt>
      <trkpt lat="40.861059" lon="0.321200">
        <ele>692.421</ele>
        <time>2020-10-02T12:58:23Z</time>
      </trkpt>
      <trkpt lat="40.860677" lon="0.320460">
        <ele>679.517</ele>
        <time>2020-10-02T12:59:03Z</time>
      </trkpt>
      <trkpt lat="40.860694" lon="0.320309">
        <ele>674.448</ele>
        <time>2020-10-02T12:59:43Z</time>
      </trkpt>
      <trkpt lat="40.860856" lon="0.320427">
        <ele>667.861</ele>
        <time>2020-10-02T13:00:23Z</time>
      </trkpt>
      <trkpt lat="40.861051" lon="0.320889">
        <ele>677.417</ele>
        <time>2020-10-02T13:01:03Z</time>
      </trkpt>
      <trkpt lat="40.861692" lon="0.321157">
        <ele>671.308</ele>
        <time>2020-10-02T13:01:43Z</time>
      </trkpt>
      <trkpt lat="40.862097" lon="0.321007">
        <ele>656.529</ele>
        <time>2020-10-02T13:02:23Z</time>
      </trkpt>
      <trkpt lat="40.862519" lon="0.320696">
        <ele>645.811</ele>
        <time>2020-10-02T13:03:03Z</time>
      </trkpt>
      <trkpt lat="40.862690" lon="0.320867">
        <ele>645.752</ele>
        <time>2020-10-02T13:03:43Z</time>
      </trkpt>
      <trkpt lat="40.862617" lon="0.321221">
        <ele>653.554</ele>
        <time>2020-10-02T13:04:23Z</time>
      </trkpt>
      <trkpt lat="40.862649" lon="0.321436">
        <ele>652.272</ele>
        <time>2020-10-02T13:05:03Z</time>
      </trkpt>
      <trkpt lat="40.862811" lon="0.320824">
        <ele>641.488</ele>
        <time>2020-10-02T13:05:43Z</time>
      </trkpt>
      <trkpt lat="40.862909" lon="0.320985">
        <ele>637.553</ele>
        <time>2020-10-02T13:06:23Z</time>
      </trkpt>
      <trkpt lat="40.862828" lon="0.321178">
        <ele>642.259</ele>
        <time>2020-10-02T13:07:03Z</time>
      </trkpt>
      <trkpt lat="40.862795" lon="0.321586">
        <ele>638.437</ele>
        <time>2020-10-02T13:07:43Z</time>
      </trkpt>
      <trkpt lat="40.862795" lon="0.321994">
        <ele>631.549</ele>
        <time>2020-10-02T13:08:23Z</time>
      </trkpt>
      <trkpt lat="40.862844" lon="0.322101">
        <ele>626.913</ele>
        <time>2020-10-02T13:09:03Z</time>
      </trkpt>
      <trkpt lat="40.862925" lon="0.321908">
        <ele>624.208</ele>
        <time>2020-10-02T13:09:43Z</time>
      </trkpt>
      <trkpt lat="40.862982" lon="0.321511">
        <ele>628.328</ele>
        <time>2020-10-02T13:10:23Z</time>
      </trkpt>
      <trkpt lat="40.863063" lon="0.321243">
        <ele>627.320</ele>
        <time>2020-10-02T13:11:03Z</time>
      </trkpt>
      <trkpt lat="40.863152" lon="0.321372">
        <ele>622.751</ele>
        <time>2020-10-02T13:11:43Z</time>
      </trkpt>
      <trkpt lat="40.863079" lon="0.321629">
        <ele>620.873</ele>
        <time>2020-10-02T13:12:23Z</time>
      </trkpt>
      <trkpt lat="40.863104" lon="0.321887">
        <ele>614.561</ele>
        <time>2020-10-02T13:13:03Z</time>
      </trkpt>
      <trkpt lat="40.863120" lon="0.322080">
        <ele>609.647</ele>
        <time>2020-10-02T13:13:43Z</time>
      </trkpt>
      <trkpt lat="40.863112" lon="0.322176">
        <ele>607.662</ele>
        <time>2020-10-02T13:14:23Z</time>
      </trkpt>
      <trkpt lat="40.862998" lon="0.322402">
        <ele>611.958</ele>
        <time>2020-10-02T13:15:03Z</time>
      </trkpt>
      <trkpt lat="40.862820" lon="0.322520">
        <ele>624.415</ele>
        <time>2020-10-02T13:15:43Z</time>
      </trkpt>
      <trkpt lat="40.862876" lon="0.322627">
        <ele>618.365</ele>
        <time>2020-10-02T13:16:23Z</time>
      </trkpt>
      <trkpt lat="40.863233" lon="0.322348">
        <ele>602.811</ele>
        <time>2020-10-02T13:17:03Z</time>
      </trkpt>
      <trkpt lat="40.863355" lon="0.321940">
        <ele>605.008</ele>
        <time>2020-10-02T13:17:43Z</time>
      </trkpt>
      <trkpt lat="40.863526" lon="0.321468">
        <ele>606.856</ele>
        <time>2020-10-02T13:18:23Z</time>
      </trkpt>
      <trkpt lat="40.864134" lon="0.320899">
        <ele>599.348</ele>
        <time>2020-10-02T13:19:03Z</time>
      </trkpt>
      <trkpt lat="40.864223" lon="0.320706">
        <ele>598.249</ele>
        <time>2020-10-02T13:19:43Z</time>
      </trkpt>
      <trkpt lat="40.863980" lon="0.320213">
        <ele>590.491</ele>
        <time>2020-10-02T13:20:23Z</time>
      </trkpt>
      <trkpt lat="40.864004" lon="0.319805">
        <ele>592.789</ele>
        <time>2020-10-02T13:21:03Z</time>
      </trkpt>
      <trkpt lat="40.864304" lon="0.318958">
        <ele>586.155</ele>
        <time>2020-10-02T13:21:43Z</time>
      </trkpt>
      <trkpt lat="40.864507" lon="0.318663">
        <ele>585.470</ele>
        <time>2020-10-02T13:22:23Z</time>
      </trkpt>
      <trkpt lat="40.864828" lon="0.318351">
        <ele>587.476</ele>
        <time>2020-10-02T13:23:03Z</time>
      </trkpt>
      <trkpt lat="40.865010" lon="0.318083">
        <ele>584.735</ele>
        <time>2020-10-02T13:23:43Z</time>
      </trkpt>
      <trkpt lat="40.864889" lon="0.318003">
        <ele>586.186</ele>
        <time>2020-10-02T13:24:23Z</time>
      </trkpt>
      <trkpt lat="40.864885" lon="0.317858">
        <ele>587.614</ele>
        <time>2020-10-02T13:25:03Z</time>
      </trkpt>
      <trkpt lat="40.865006" lon="0.317557">
        <ele>590.008</ele>
        <time>2020-10-02T13:25:43Z</time>
      </trkpt>
      <trkpt lat="40.865152" lon="0.317284">
        <ele>589.318</ele>
        <time>2020-10-02T13:26:23Z</time>
      </trkpt>
      <trkpt lat="40.865250" lon="0.317101">
        <ele>585.510</ele>
        <time>2020-10-02T13:27:03Z</time>
      </trkpt>
      <trkpt lat="40.865392" lon="0.316882">
        <ele>582.371</ele>
        <time>2020-10-02T13:27:43Z</time>
      </trkpt>
      <trkpt lat="40.865416" lon="0.316688">
        <ele>583.883</ele>
        <time>2020-10-02T13:28:23Z</time>
      </trkpt>
      <trkpt lat="40.865331" lon="0.316549">
        <ele>587.031</ele>
        <time>2020-10-02T13:29:03Z</time>
      </trkpt>
      <trkpt lat="40.865298" lon="0.316404">
        <ele>589.387</ele>
        <time>2020-10-02T13:29:43Z</time>
      </trkpt>
      <trkpt lat="40.865412" lon="0.316270">
        <ele>587.052</ele>
        <time>2020-10-02T13:30:23Z</time>
      </trkpt>
      <trkpt lat="40.865623" lon="0.316511">
        <ele>580.918</ele>
        <time>2020-10-02T13:31:03Z</time>
      </trkpt>
      <trkpt lat="40.865753" lon="0.316646">
        <ele>579.639</ele>
        <time>2020-10-02T13:31:43Z</time>
      </trkpt>
      <trkpt lat="40.865818" lon="0.316388">
        <ele>579.201</ele>
        <time>2020-10-02T13:32:23Z</time>
      </trkpt>
      <trkpt lat="40.865818" lon="0.315986">
        <ele>576.021</ele>
        <time>2020-10-02T13:33:03Z</time>
      </trkpt>
      <trkpt lat="40.865834" lon="0.315750">
        <ele>575.608</ele>
        <time>2020-10-02T13:33:43Z</time>
      </trkpt>
      <trkpt lat="40.865891" lon="0.315551">
        <ele>576.568</ele>
        <time>2020-10-02T13:34:23Z</time>
      </trkpt>
      <trkpt lat="40.865960" lon="0.315363">
        <ele>580.490</ele>
        <time>2020-10-02T13:35:03Z</time>
      </trkpt>
      <trkpt lat="40.866114" lon="0.315363">
        <ele>576.141</ele>
        <time>2020-10-02T13:35:43Z</time>
      </trkpt>
      <trkpt lat="40.866292" lon="0.315208">
        <ele>580.573</ele>
        <time>2020-10-02T13:36:23Z</time>
      </trkpt>
      <trkpt lat="40.866414" lon="0.314832">
        <ele>586.231</ele>
        <time>2020-10-02T13:37:03Z</time>
      </trkpt>
      <trkpt lat="40.866597" lon="0.314564">
        <ele>588.767</ele>
        <time>2020-10-02T13:37:43Z</time>
      </trkpt>
      <trkpt lat="40.866816" lon="0.314468">
        <ele>581.292</ele>
        <time>2020-10-02T13:38:23Z</time>
      </trkpt>
      <trkpt lat="40.866933" lon="0.314371">
        <ele>574.048</ele>
        <time>2020-10-02T13:39:03Z</time>
      </trkpt>
      <trkpt lat="40.866945" lon="0.314167">
        <ele>569.042</ele>
        <time>2020-10-02T13:39:43Z</time>
      </trkpt>
      <trkpt lat="40.866974" lon="0.313727">
        <ele>563.422</ele>
        <time>2020-10-02T13:40:23Z</time>
      </trkpt>
      <trkpt lat="40.866949" lon="0.313475">
        <ele>564.414</ele>
        <time>2020-10-02T13:41:03Z</time>
      </trkpt>
      <trkpt lat="40.866905" lon="0.313266">
        <ele>567.508</ele>
        <time>2020-10-02T13:41:43Z</time>
      </trkpt>
      <trkpt lat="40.866901" lon="0.313078">
        <ele>566.269</ele>
        <time>2020-10-02T13:42:23Z</time>
      </trkpt>
      <trkpt lat="40.866881" lon="0.312440">
        <ele>570.971</ele>
        <time>2020-10-02T13:43:03Z</time>
      </trkpt>
      <trkpt lat="40.866958" lon="0.311952">
        <ele>567.722</ele>
        <time>2020-10-02T13:43:43Z</time>
      </trkpt>
      <trkpt lat="40.867091" lon="0.311555">
        <ele>565.014</ele>
        <time>2020-10-02T13:44:23Z</time>
      </trkpt>
      <trkpt lat="40.867217" lon="0.311211">
        <ele>564.362</ele>
        <time>2020-10-02T13:45:03Z</time>
      </trkpt>
      <trkpt lat="40.867375" lon="0.310444">
        <ele>563.888</ele>
        <time>2020-10-02T13:45:43Z</time>
      </trkpt>
      <trkpt lat="40.867420" lon="0.310085">
        <ele>562.443</ele>
        <time>2020-10-02T13:46:23Z</time>
      </trkpt>
      <trkpt lat="40.867448" lon="0.309704">
        <ele>560.529</ele>
        <time>2020-10-02T13:47:03Z</time>
      </trkpt>
      <trkpt lat="40.867424" lon="0.309371">
        <ele>559.465</ele>
        <time>2020-10-02T13:47:43Z</time>
      </trkpt>
      <trkpt lat="40.867501" lon="0.309055">
        <ele>558.468</ele>
        <time>2020-10-02T13:48:23Z</time>
      </trkpt>
      <trkpt lat="40.867635" lon="0.308738">
        <ele>557.014</ele>
        <time>2020-10-02T13:49:03Z</time>
      </trkpt>
      <trkpt lat="40.867643" lon="0.308427">
        <ele>555.808</ele>
        <time>2020-10-02T13:49:43Z</time>
      </trkpt>
      <trkpt lat="40.867749" lon="0.308046">
        <ele>556.211</ele>
        <time>2020-10-02T13:50:23Z</time>
      </trkpt>
      <trkpt lat="40.867923" lon="0.307703">
        <ele>559.613</ele>
        <time>2020-10-02T13:51:03Z</time>
      </trkpt>
      <trkpt lat="40.868085" lon="0.307724">
        <ele>560.194</ele>
        <time>2020-10-02T13:51:43Z</time>
      </trkpt>
      <trkpt lat="40.868288" lon="0.307526">
        <ele>567.376</ele>
        <time>2020-10-02T13:52:23Z</time>
      </trkpt>
      <trkpt lat="40.868418" lon="0.307322">
        <ele>567.034</ele>
        <time>2020-10-02T13:53:03Z</time>
      </trkpt>
      <trkpt lat="40.868771" lon="0.306555">
        <ele>565.290</ele>
        <time>2020-10-02T13:53:43Z</time>
      </trkpt>
      <trkpt lat="40.868929" lon="0.306399">
        <ele>563.335</ele>
        <time>2020-10-02T13:54:23Z</time>
      </trkpt>
      <trkpt lat="40.869075" lon="0.306174">
        <ele>563.361</ele>
        <time>2020-10-02T13:55:03Z</time>
      </trkpt>
      <trkpt lat="40.869132" lon="0.305986">
        <ele>563.723</ele>
        <time>2020-10-02T13:55:43Z</time>
      </trkpt>
      <trkpt lat="40.869513" lon="0.305648">
        <ele>564.583</ele>
        <time>2020-10-02T13:56:23Z</time>
      </trkpt>
      <trkpt lat="40.869700" lon="0.305450">
        <ele>564.711</ele>
        <time>2020-10-02T13:57:03Z</time>
      </trkpt>
      <trkpt lat="40.869919" lon="0.305230">
        <ele>563.208</ele>
        <time>2020-10-02T13:57:43Z</time>
      </trkpt>
      <trkpt lat="40.870024" lon="0.305139">
        <ele>560.827</ele>
        <time>2020-10-02T13:58:23Z</time>
      </trkpt>
      <trkpt lat="40.870118" lon="0.305026">
        <ele>557.819</ele>
        <time>2020-10-02T13:59:03Z</time>
      </trkpt>
      <trkpt lat="40.870337" lon="0.304694">
        <ele>553.510</ele>
        <time>2020-10-02T13:59:43Z</time>
      </trkpt>
      <trkpt lat="40.870458" lon="0.304559">
        <ele>552.612</ele>
        <time>2020-10-02T14:00:23Z</time>
      </trkpt>
      <trkpt lat="40.870450" lon="0.304420">
        <ele>553.980</ele>
        <time>2020-10-02T14:01:03Z</time>
      </trkpt>
      <trkpt lat="40.870454" lon="0.304114">
        <ele>557.416</ele>
        <time>2020-10-02T14:01:43Z</time>
      </trkpt>
      <trkpt lat="40.870580" lon="0.303835">
        <ele>556.681</ele>
        <time>2020-10-02T14:02:23Z</time>
      </trkpt>
      <trkpt lat="40.870678" lon="0.303669">
        <ele>556.417</ele>
        <time>2020-10-02T14:03:03Z</time>
      </trkpt>
      <trkpt lat="40.870775" lon="0.303460">
        <ele>555.189</ele>
        <time>2020-10-02T14:03:43Z</time>
      </trkpt>
      <trkpt lat="40.870718" lon="0.303299">
        <ele>558.806</ele>
        <time>2020-10-02T14:04:23Z</time>
      </trkpt>
      <trkpt lat="40.870779" lon="0.303154">
        <ele>559.426</ele>
        <time>2020-10-02T14:05:03Z</time>
      </trkpt>
      <trkpt lat="40.871071" lon="0.302977">
        <ele>555.508</ele>
        <time>2020-10-02T14:05:43Z</time>
      </trkpt>
      <trkpt lat="40.871363" lon="0.302719">
        <ele>549.673</ele>
        <time>2020-10-02T14:06:23Z</time>
      </trkpt>
      <trkpt lat="40.871477" lon="0.302510">
        <ele>549.685</ele>
        <time>2020-10-02T14:07:03Z</time>
      </trkpt>
      <trkpt lat="40.871493" lon="0.302339">
        <ele>551.836</ele>
        <time>2020-10-02T14:07:43Z</time>
      </trkpt>
      <trkpt lat="40.871712" lon="0.302215">
        <ele>550.558</ele>
        <time>2020-10-02T14:08:23Z</time>
      </trkpt>
      <trkpt lat="40.872203" lon="0.301985">
        <ele>546.766</ele>
        <time>2020-10-02T14:09:03Z</time>
      </trkpt>
      <trkpt lat="40.872126" lon="0.301813">
        <ele>549.832</ele>
        <time>2020-10-02T14:09:43Z</time>
      </trkpt>
      <trkpt lat="40.872081" lon="0.301641">
        <ele>553.257</ele>
        <time>2020-10-02T14:10:23Z</time>
      </trkpt>
      <trkpt lat="40.872268" lon="0.301743">
        <ele>548.863</ele>
        <time>2020-10-02T14:11:03Z</time>
      </trkpt>
      <trkpt lat="40.872523" lon="0.301968">
        <ele>546.023</ele>
        <time>2020-10-02T14:11:43Z</time>
      </trkpt>
      <trkpt lat="40.872900" lon="0.301947">
        <ele>549.883</ele>
        <time>2020-10-02T14:12:23Z</time>
      </trkpt>
      <trkpt lat="40.873253" lon="0.301942">
        <ele>555.311</ele>
        <time>2020-10-02T14:13:03Z</time>
      </trkpt>
      <trkpt lat="40.873509" lon="0.302108">
        <ele>554.908</ele>
        <time>2020-10-02T14:13:43Z</time>
      </trkpt>
      <trkpt lat="40.873683" lon="0.302215">
        <ele>555.097</ele>
        <time>2020-10-02T14:14:23Z</time>
      </trkpt>
      <trkpt lat="40.873975" lon="0.302296">
        <ele>558.549</ele>
        <time>2020-10-02T14:15:03Z</time>
      </trkpt>
      <trkpt lat="40.874154" lon="0.302408">
        <ele>561.250</ele>
        <time>2020-10-02T14:15:43Z</time>
      </trkpt>
      <trkpt lat="40.874052" lon="0.302371">
        <ele>559.062</ele>
        <time>2020-10-02T14:16:23Z</time>
      </trkpt>
      <trkpt lat="40.874061" lon="0.302489">
        <ele>555.380</ele>
        <time>2020-10-02T14:17:03Z</time>
      </trkpt>
      <trkpt lat="40.874101" lon="0.302639">
        <ele>552.646</ele>
        <time>2020-10-02T14:17:43Z</time>
      </trkpt>
      <trkpt lat="40.874117" lon="0.302714">
        <ele>551.031</ele>
        <time>2020-10-02T14:18:23Z</time>
      </trkpt>
      <trkpt lat="40.874077" lon="0.302778">
        <ele>548.777</ele>
        <time>2020-10-02T14:19:03Z</time>
      </trkpt>
      <trkpt lat="40.873959" lon="0.302752">
        <ele>547.542</ele>
        <time>2020-10-02T14:19:43Z</time>
      </trkpt>
      <trkpt lat="40.873846" lon="0.302736">
        <ele>546.322</ele>
        <time>2020-10-02T14:20:23Z</time>
      </trkpt>
      <trkpt lat="40.873748" lon="0.302725">
        <ele>545.614</ele>
        <time>2020-10-02T14:21:03Z</time>
      </trkpt>
      <trkpt lat="40.873586" lon="0.302618">
        <ele>545.608</ele>
        <time>2020-10-02T14:21:43Z</time>
      </trkpt>
      <trkpt lat="40.873456" lon="0.302639">
        <ele>544.749</ele>
        <time>2020-10-02T14:22:23Z</time>
      </trkpt>
      <trkpt lat="40.873549" lon="0.302800">
        <ele>544.031</ele>
        <time>2020-10-02T14:23:03Z</time>
      </trkpt>
      <trkpt lat="40.873184" lon="0.302687">
        <ele>544.012</ele>
        <time>2020-10-02T14:23:43Z</time>
      </trkpt>
      <trkpt lat="40.872998" lon="0.302709">
        <ele>544.244</ele>
        <time>2020-10-02T14:24:23Z</time>
      </trkpt>
      <trkpt lat="40.873225" lon="0.302918">
        <ele>544.232</ele>
        <time>2020-10-02T14:25:03Z</time>
      </trkpt>
      <trkpt lat="40.873440" lon="0.303090">
        <ele>544.218</ele>
        <time>2020-10-02T14:25:43Z</time>
      </trkpt>
      <trkpt lat="40.873639" lon="0.303310">
        <ele>543.863</ele>
        <time>2020-10-02T14:26:23Z</time>
      </trkpt>
      <trkpt lat="40.873866" lon="0.303599">
        <ele>542.179</ele>
        <time>2020-10-02T14:27:03Z</time>
      </trkpt>
      <trkpt lat="40.873983" lon="0.303787">
        <ele>541.622</ele>
        <time>2020-10-02T14:27:43Z</time>
      </trkpt>
      <trkpt lat="40.873886" lon="0.303680">
        <ele>542.049</ele>
        <time>2020-10-02T09:48:00Z</time>
      </trkpt>
      <trkpt lat="40.873286" lon="0.302972">
        <ele>544.102</ele>
        <time>2020-10-02T09:48:40Z</time>
      </trkpt>
      <trkpt lat="40.872896" lon="0.302596">
        <ele>544.222</ele>
        <time>2020-10-02T09:49:20Z</time>
      </trkpt>
      <trkpt lat="40.872515" lon="0.302725">
        <ele>543.908</ele>
        <time>2020-10-02T09:50:00Z</time>
      </trkpt>
      <trkpt lat="40.871460" lon="0.303519">
        <ele>552.039</ele>
        <time>2020-10-02T09:50:40Z</time>
      </trkpt>
      <trkpt lat="40.871249" lon="0.303894">
        <ele>557.621</ele>
        <time>2020-10-02T09:51:20Z</time>
      </trkpt>
      <trkpt lat="40.871201" lon="0.304259">
        <ele>563.772</ele>
        <time>2020-10-02T09:52:00Z</time>
      </trkpt>
      <trkpt lat="40.870909" lon="0.304785">
        <ele>563.554</ele>
        <time>2020-10-02T09:52:40Z</time>
      </trkpt>
      <trkpt lat="40.870665" lon="0.305364">
        <ele>565.592</ele>
        <time>2020-10-02T09:53:20Z</time>
      </trkpt>
      <trkpt lat="40.870154" lon="0.305632">
        <ele>561.991</ele>
        <time>2020-10-02T09:54:00Z</time>
      </trkpt>
      <trkpt lat="40.869473" lon="0.306019">
        <ele>566.462</ele>
        <time>2020-10-02T09:54:40Z</time>
      </trkpt>
      <trkpt lat="40.869246" lon="0.306448">
        <ele>567.951</ele>
        <time>2020-10-02T09:55:20Z</time>
      </trkpt>
      <trkpt lat="40.868596" lon="0.307456">
        <ele>570.498</ele>
        <time>2020-10-02T09:56:00Z</time>
      </trkpt>
      <trkpt lat="40.868207" lon="0.308197">
        <ele>560.315</ele>
        <time>2020-10-02T09:56:40Z</time>
      </trkpt>
      <trkpt lat="40.867850" lon="0.309441">
        <ele>559.526</ele>
        <time>2020-10-02T09:57:20Z</time>
      </trkpt>
      <trkpt lat="40.867761" lon="0.310106">
        <ele>562.108</ele>
        <time>2020-10-02T09:58:00Z</time>
      </trkpt>
      <trkpt lat="40.867818" lon="0.311083">
        <ele>564.584</ele>
        <time>2020-10-02T09:58:40Z</time>
      </trkpt>
      <trkpt lat="40.867631" lon="0.311426">
        <ele>565.226</ele>
        <time>2020-10-02T09:59:20Z</time>
      </trkpt>
      <trkpt lat="40.867436" lon="0.311898">
        <ele>565.057</ele>
        <time>2020-10-02T10:00:00Z</time>
      </trkpt>
      <trkpt lat="40.867404" lon="0.312520">
        <ele>568.689</ele>
        <time>2020-10-02T10:00:40Z</time>
      </trkpt>
      <trkpt lat="40.867258" lon="0.313057">
        <ele>564.687</ele>
        <time>2020-10-02T10:01:20Z</time>
      </trkpt>
      <trkpt lat="40.867339" lon="0.313840">
        <ele>569.436</ele>
        <time>2020-10-02T10:02:00Z</time>
      </trkpt>
      <trkpt lat="40.867201" lon="0.314323">
        <ele>571.327</ele>
        <time>2020-10-02T10:02:40Z</time>
      </trkpt>
      <trkpt lat="40.866994" lon="0.314516">
        <ele>576.316</ele>
        <time>2020-10-02T10:03:20Z</time>
      </trkpt>
      <trkpt lat="40.867140" lon="0.314870">
        <ele>582.141</ele>
        <time>2020-10-02T10:04:00Z</time>
      </trkpt>
      <trkpt lat="40.867278" lon="0.315213">
        <ele>586.981</ele>
        <time>2020-10-02T10:04:40Z</time>
      </trkpt>
      <trkpt lat="40.867566" lon="0.315567">
        <ele>581.309</ele>
        <time>2020-10-02T10:05:20Z</time>
      </trkpt>
      <trkpt lat="40.867590" lon="0.315728">
        <ele>580.608</ele>
        <time>2020-10-02T10:06:00Z</time>
      </trkpt>
      <trkpt lat="40.867615" lon="0.315894">
        <ele>579.889</ele>
        <time>2020-10-02T10:06:40Z</time>
      </trkpt>
      <trkpt lat="40.867684" lon="0.315948">
        <ele>580.441</ele>
        <time>2020-10-02T10:07:20Z</time>
      </trkpt>
      <trkpt lat="40.867704" lon="0.316082">
        <ele>579.332</ele>
        <time>2020-10-02T10:08:00Z</time>
      </trkpt>
      <trkpt lat="40.867319" lon="0.316721">
        <ele>586.314</ele>
        <time>2020-10-02T10:08:40Z</time>
      </trkpt>
      <trkpt lat="40.867432" lon="0.317144">
        <ele>583.482</ele>
        <time>2020-10-02T10:09:20Z</time>
      </trkpt>
      <trkpt lat="40.867785" lon="0.317767">
        <ele>583.291</ele>
        <time>2020-10-02T10:10:00Z</time>
      </trkpt>
      <trkpt lat="40.867988" lon="0.318282">
        <ele>589.642</ele>
        <time>2020-10-02T10:10:40Z</time>
      </trkpt>
      <trkpt lat="40.867988" lon="0.318469">
        <ele>589.871</ele>
        <time>2020-10-02T10:11:20Z</time>
      </trkpt>
      <trkpt lat="40.867773" lon="0.319220">
        <ele>593.722</ele>
        <time>2020-10-02T10:12:00Z</time>
      </trkpt>
      <trkpt lat="40.867562" lon="0.319344">
        <ele>596.962</ele>
        <time>2020-10-02T10:12:40Z</time>
      </trkpt>
      <trkpt lat="40.867388" lon="0.319811">
        <ele>593.708</ele>
        <time>2020-10-02T10:13:20Z</time>
      </trkpt>
      <trkpt lat="40.867347" lon="0.320154">
        <ele>597.508</ele>
        <time>2020-10-02T10:14:00Z</time>
      </trkpt>
      <trkpt lat="40.867384" lon="0.320653">
        <ele>598.247</ele>
        <time>2020-10-02T10:14:40Z</time>
      </trkpt>
      <trkpt lat="40.867404" lon="0.321050">
        <ele>601.479</ele>
        <time>2020-10-02T10:15:20Z</time>
      </trkpt>
      <trkpt lat="40.867335" lon="0.321200">
        <ele>603.670</ele>
        <time>2020-10-02T10:16:00Z</time>
      </trkpt>
      <trkpt lat="40.867201" lon="0.321420">
        <ele>605.892</ele>
        <time>2020-10-02T10:16:40Z</time>
      </trkpt>
      <trkpt lat="40.867087" lon="0.321484">
        <ele>607.410</ele>
        <time>2020-10-02T10:17:20Z</time>
      </trkpt>
      <trkpt lat="40.866812" lon="0.321484">
        <ele>610.569</ele>
        <time>2020-10-02T10:18:00Z</time>
      </trkpt>
      <trkpt lat="40.866386" lon="0.321436">
        <ele>611.220</ele>
        <time>2020-10-02T10:18:40Z</time>
      </trkpt>
      <trkpt lat="40.866235" lon="0.321543">
        <ele>611.419</ele>
        <time>2020-10-02T10:19:20Z</time>
      </trkpt>
      <trkpt lat="40.865980" lon="0.321763">
        <ele>613.246</ele>
        <time>2020-10-02T10:20:00Z</time>
      </trkpt>
      <trkpt lat="40.865720" lon="0.321983">
        <ele>614.788</ele>
        <time>2020-10-02T10:20:40Z</time>
      </trkpt>
      <trkpt lat="40.865590" lon="0.322144">
        <ele>614.716</ele>
        <time>2020-10-02T10:21:20Z</time>
      </trkpt>
      <trkpt lat="40.865521" lon="0.322294">
        <ele>615.008</ele>
        <time>2020-10-02T10:22:00Z</time>
      </trkpt>
      <trkpt lat="40.865375" lon="0.322562">
        <ele>619.159</ele>
        <time>2020-10-02T10:22:40Z</time>
      </trkpt>
      <trkpt lat="40.865327" lon="0.323147">
        <ele>623.271</ele>
        <time>2020-10-02T10:23:20Z</time>
      </trkpt>
      <trkpt lat="40.865392" lon="0.323587">
        <ele>629.052</ele>
        <time>2020-10-02T10:24:00Z</time>
      </trkpt>
      <trkpt lat="40.865432" lon="0.324005">
        <ele>631.744</ele>
        <time>2020-10-02T10:24:40Z</time>
      </trkpt>
      <trkpt lat="40.865408" lon="0.324413">
        <ele>630.412</ele>
        <time>2020-10-02T10:25:20Z</time>
      </trkpt>
      <trkpt lat="40.865359" lon="0.324692">
        <ele>627.931</ele>
        <time>2020-10-02T10:26:00Z</time>
      </trkpt>
      <trkpt lat="40.865266" lon="0.324907">
        <ele>626.212</ele>
        <time>2020-10-02T10:26:40Z</time>
      </trkpt>
      <trkpt lat="40.865140" lon="0.325105">
        <ele>627.531</ele>
        <time>2020-10-02T10:27:20Z</time>
      </trkpt>
      <trkpt lat="40.864986" lon="0.325239">
        <ele>627.069</ele>
        <time>2020-10-02T10:28:00Z</time>
      </trkpt>
      <trkpt lat="40.864954" lon="0.325459">
        <ele>627.804</ele>
        <time>2020-10-02T10:28:40Z</time>
      </trkpt>
      <trkpt lat="40.864958" lon="0.325706">
        <ele>627.224</ele>
        <time>2020-10-02T10:29:20Z</time>
      </trkpt>
      <trkpt lat="40.864966" lon="0.326076">
        <ele>630.108</ele>
        <time>2020-10-02T10:30:00Z</time>
      </trkpt>
      <trkpt lat="40.865096" lon="0.326205">
        <ele>634.131</ele>
        <time>2020-10-02T10:30:40Z</time>
      </trkpt>
      <trkpt lat="40.865420" lon="0.326285">
        <ele>641.893</ele>
        <time>2020-10-02T10:31:20Z</time>
      </trkpt>
      <trkpt lat="40.865745" lon="0.326221">
        <ele>645.414</ele>
        <time>2020-10-02T10:32:00Z</time>
      </trkpt>
      <trkpt lat="40.866357" lon="0.326269">
        <ele>652.386</ele>
        <time>2020-10-02T10:32:40Z</time>
      </trkpt>
      <trkpt lat="40.866674" lon="0.326537">
        <ele>650.124</ele>
        <time>2020-10-02T10:33:20Z</time>
      </trkpt>
      <trkpt lat="40.866791" lon="0.326892">
        <ele>653.553</ele>
        <time>2020-10-02T10:34:00Z</time>
      </trkpt>
      <trkpt lat="40.866885" lon="0.327423">
        <ele>659.934</ele>
        <time>2020-10-02T10:34:40Z</time>
      </trkpt>
      <trkpt lat="40.866848" lon="0.327584">
        <ele>660.963</ele>
        <time>2020-10-02T10:35:20Z</time>
      </trkpt>
      <trkpt lat="40.866710" lon="0.327852">
        <ele>659.214</ele>
        <time>2020-10-02T10:36:00Z</time>
      </trkpt>
      <trkpt lat="40.866670" lon="0.328259">
        <ele>657.054</ele>
        <time>2020-10-02T10:36:40Z</time>
      </trkpt>
      <trkpt lat="40.866455" lon="0.328555">
        <ele>661.209</ele>
        <time>2020-10-02T10:37:20Z</time>
      </trkpt>
      <trkpt lat="40.866008" lon="0.328603">
        <ele>660.708</ele>
        <time>2020-10-02T10:38:00Z</time>
      </trkpt>
      <trkpt lat="40.865810" lon="0.328742">
        <ele>660.046</ele>
        <time>2020-10-02T10:38:40Z</time>
      </trkpt>
      <trkpt lat="40.865741" lon="0.328914">
        <ele>661.468</ele>
        <time>2020-10-02T10:39:20Z</time>
      </trkpt>
      <trkpt lat="40.865737" lon="0.329123">
        <ele>664.579</ele>
        <time>2020-10-02T10:40:00Z</time>
      </trkpt>
      <trkpt lat="40.865789" lon="0.329257">
        <ele>664.871</ele>
        <time>2020-10-02T10:40:40Z</time>
      </trkpt>
      <trkpt lat="40.866000" lon="0.329719">
        <ele>669.099</ele>
        <time>2020-10-02T10:41:20Z</time>
      </trkpt>
      <trkpt lat="40.866069" lon="0.330496">
        <ele>673.958</ele>
        <time>2020-10-02T10:42:00Z</time>
      </trkpt>
      <trkpt lat="40.866187" lon="0.331049">
        <ele>683.669</ele>
        <time>2020-10-02T10:42:40Z</time>
      </trkpt>
      <trkpt lat="40.866227" lon="0.331328">
        <ele>689.768</ele>
        <time>2020-10-02T10:43:20Z</time>
      </trkpt>
      <trkpt lat="40.866142" lon="0.331805">
        <ele>691.771</ele>
        <time>2020-10-02T10:44:00Z</time>
      </trkpt>
      <trkpt lat="40.866069" lon="0.332111">
        <ele>693.841</ele>
        <time>2020-10-02T10:44:40Z</time>
      </trkpt>
      <trkpt lat="40.865939" lon="0.332428">
        <ele>695.015</ele>
        <time>2020-10-02T10:45:20Z</time>
      </trkpt>
      <trkpt lat="40.865878" lon="0.332819">
        <ele>699.608</ele>
        <time>2020-10-02T10:46:00Z</time>
      </trkpt>
      <trkpt lat="40.865903" lon="0.333163">
        <ele>703.562</ele>
        <time>2020-10-02T10:46:40Z</time>
      </trkpt>
      <trkpt lat="40.866073" lon="0.333720">
        <ele>705.734</ele>
        <time>2020-10-02T10:47:20Z</time>
      </trkpt>
      <trkpt lat="40.866073" lon="0.334193">
        <ele>713.855</ele>
        <time>2020-10-02T10:48:00Z</time>
      </trkpt>
      <trkpt lat="40.865947" lon="0.334386">
        <ele>717.397</ele>
        <time>2020-10-02T10:48:40Z</time>
      </trkpt>
      <trkpt lat="40.865680" lon="0.334632">
        <ele>728.915</ele>
        <time>2020-10-02T10:49:20Z</time>
      </trkpt>
      <trkpt lat="40.865526" lon="0.334793">
        <ele>740.244</ele>
        <time>2020-10-02T10:50:00Z</time>
      </trkpt>
      <trkpt lat="40.865278" lon="0.334868">
        <ele>746.465</ele>
        <time>2020-10-02T10:50:40Z</time>
      </trkpt>
      <trkpt lat="40.865108" lon="0.335078">
        <ele>756.784</ele>
        <time>2020-10-02T10:51:20Z</time>
      </trkpt>
      <trkpt lat="40.864962" lon="0.335201">
        <ele>764.844</ele>
        <time>2020-10-02T10:52:00Z</time>
      </trkpt>
      <trkpt lat="40.864783" lon="0.335480">
        <ele>773.705</ele>
        <time>2020-10-02T10:52:40Z</time>
      </trkpt>
      <trkpt lat="40.864665" lon="0.335689">
        <ele>775.315</ele>
        <time>2020-10-02T10:53:20Z</time>
      </trkpt>
      <trkpt lat="40.864503" lon="0.335813">
        <ele>774.108</ele>
        <time>2020-10-02T10:54:00Z</time>
      </trkpt>
      <trkpt lat="40.864739" lon="0.335925">
        <ele>774.219</ele>
        <time>2020-10-02T10:54:40Z</time>
      </trkpt>
      <trkpt lat="40.864945" lon="0.335818">
        <ele>773.361</ele>
        <time>2020-10-02T10:55:20Z</time>
      </trkpt>
      <trkpt lat="40.865169" lon="0.335931">
        <ele>780.972</ele>
        <time>2020-10-02T10:56:00Z</time>
      </trkpt>
      <trkpt lat="40.865274" lon="0.336161">
        <ele>795.474</ele>
        <time>2020-10-02T10:56:40Z</time>
      </trkpt>
      <trkpt lat="40.865396" lon="0.336236">
        <ele>804.222</ele>
        <time>2020-10-02T10:57:20Z</time>
      </trkpt>
      <trkpt lat="40.865465" lon="0.336344">
        <ele>814.661</ele>
        <time>2020-10-02T10:58:00Z</time>
      </trkpt>
      <trkpt lat="40.865708" lon="0.336462">
        <ele>829.462</ele>
        <time>2020-10-02T10:58:40Z</time>
      </trkpt>
      <trkpt lat="40.865757" lon="0.336537">
        <ele>833.991</ele>
        <time>2020-10-02T10:59:20Z</time>
      </trkpt>
      <trkpt lat="40.866081" lon="0.336810">
        <ele>854.863</ele>
        <time>2020-10-02T11:00:00Z</time>
      </trkpt>
      <trkpt lat="40.866110" lon="0.336869">
        <ele>857.844</ele>
        <time>2020-10-02T11:00:40Z</time>
      </trkpt>
      <trkpt lat="40.866317" lon="0.336928">
        <ele>870.518</ele>
        <time>2020-10-02T11:01:20Z</time>
      </trkpt>
      <trkpt lat="40.866450" lon="0.337309">
        <ele>884.608</ele>
        <time>2020-10-02T11:02:00Z</time>
      </trkpt>
      <trkpt lat="40.866645" lon="0.337427">
        <ele>895.061</ele>
        <time>2020-10-02T11:02:40Z</time>
      </trkpt>
      <trkpt lat="40.866824" lon="0.337465">
        <ele>905.533</ele>
        <time>2020-10-02T11:03:20Z</time>
      </trkpt>
      <trkpt lat="40.866986" lon="0.337449">
        <ele>912.174</ele>
        <time>2020-10-02T11:04:00Z</time>
      </trkpt>
      <trkpt lat="40.867124" lon="0.337615">
        <ele>915.246</ele>
        <time>2020-10-02T11:04:40Z</time>
      </trkpt>
      <trkpt lat="40.867331" lon="0.337915">
        <ele>922.074</ele>
        <time>2020-10-02T11:05:20Z</time>
      </trkpt>
      <trkpt lat="40.867696" lon="0.338328">
        <ele>934.283</ele>
        <time>2020-10-02T11:06:00Z</time>
      </trkpt>
      <trkpt lat="40.867915" lon="0.338688">
        <ele>944.934</ele>
        <time>2020-10-02T11:06:40Z</time>
      </trkpt>
      <trkpt lat="40.868138" lon="0.339004">
        <ele>951.643</ele>
        <time>2020-10-02T11:07:20Z</time>
      </trkpt>
      <trkpt lat="40.868345" lon="0.339187">
        <ele>953.719</ele>
        <time>2020-10-02T11:08:00Z</time>
      </trkpt>
      <trkpt lat="40.868381" lon="0.339337">
        <ele>954.109</ele>
        <time>2020-10-02T11:08:40Z</time>
      </trkpt>
      <trkpt lat="40.869018" lon="0.340233">
        <ele>985.019</ele>
        <time>2020-10-02T11:09:20Z</time>
      </trkpt>
      <trkpt lat="40.869651" lon="0.340726">
        <ele>1008.708</ele>
        <time>2020-10-02T11:10:00Z</time>
      </trkpt>
      <trkpt lat="40.869960" lon="0.341585">
        <ele>1032.026</ele>
        <time>2020-10-02T11:10:40Z</time>
      </trkpt>
      <trkpt lat="40.870381" lon="0.342336">
        <ele>1036.778</ele>
        <time>2020-10-02T11:11:20Z</time>
      </trkpt>
      <trkpt lat="40.870722" lon="0.342894">
        <ele>1041.719</ele>
        <time>2020-10-02T11:12:00Z</time>
      </trkpt>
      <trkpt lat="40.870755" lon="0.343280">
        <ele>1044.041</ele>
        <time>2020-10-02T11:12:40Z</time>
      </trkpt>
      <trkpt lat="40.871112" lon="0.343773">
        <ele>1061.529</ele>
        <time>2020-10-02T11:13:20Z</time>
      </trkpt>
      <trkpt lat="40.871825" lon="0.344481">
        <ele>1073.388</ele>
        <time>2020-10-02T11:14:00Z</time>
      </trkpt>
      <trkpt lat="40.872264" lon="0.344868">
        <ele>1092.939</ele>
        <time>2020-10-02T11:14:40Z</time>
      </trkpt>
      <trkpt lat="40.872328" lon="0.345254">
        <ele>1106.328</ele>
        <time>2020-10-02T11:15:20Z</time>
      </trkpt>
      <trkpt lat="40.872556" lon="0.345576">
        <ele>1119.191</ele>
        <time>2020-10-02T11:16:00Z</time>
      </trkpt>
      <trkpt lat="40.873059" lon="0.346069">
        <ele>1136.081</ele>
        <time>2020-10-02T11:16:40Z</time>
      </trkpt>
      <trkpt lat="40.873448" lon="0.346563">
        <ele>1160.019</ele>
        <time>2020-10-02T11:17:20Z</time>
      </trkpt>
      <trkpt lat="40.873724" lon="0.347099">
        <ele>1173.608</ele>
        <time>2020-10-02T11:18:00Z</time>
      </trkpt>
      <trkpt lat="40.874503" lon="0.346842">
        <ele>1166.124</ele>
        <time>2020-10-02T11:18:40Z</time>
      </trkpt>
      <trkpt lat="40.875038" lon="0.346391">
        <ele>1153.486</ele>
        <time>2020-10-02T11:19:20Z</time>
      </trkpt>
      <trkpt lat="40.875622" lon="0.346026">
        <ele>1154.517</ele>
        <time>2020-10-02T11:20:00Z</time>
      </trkpt>
      <trkpt lat="40.876336" lon="0.345554">
        <ele>1129.829</ele>
        <time>2020-10-02T11:20:40Z</time>
      </trkpt>
      <trkpt lat="40.876872" lon="0.345855">
        <ele>1115.757</ele>
        <time>2020-10-02T11:21:20Z</time>
      </trkpt>
      <trkpt lat="40.877504" lon="0.345297">
        <ele>1074.976</ele>
        <time>2020-10-02T11:22:00Z</time>
      </trkpt>
      <trkpt lat="40.878494" lon="0.345082">
        <ele>1047.087</ele>
        <time>2020-10-02T11:22:40Z</time>
      </trkpt>
      <trkpt lat="40.878851" lon="0.344589">
        <ele>1037.176</ele>
        <time>2020-10-02T11:23:20Z</time>
      </trkpt>
      <trkpt lat="40.878981" lon="0.343881">
        <ele>1022.396</ele>
        <time>2020-10-02T11:24:00Z</time>
      </trkpt>
      <trkpt lat="40.879127" lon="0.343409">
        <ele>1027.431</ele>
        <time>2020-10-02T11:24:40Z</time>
      </trkpt>
      <trkpt lat="40.879256" lon="0.342979">
        <ele>1037.724</ele>
        <time>2020-10-02T11:25:20Z</time>
      </trkpt>
      <trkpt lat="40.879662" lon="0.343387">
        <ele>1037.008</ele>
        <time>2020-10-02T11:26:00Z</time>
      </trkpt>
      <trkpt lat="40.880214" lon="0.343859">
        <ele>1043.254</ele>
        <time>2020-10-02T11:26:40Z</time>
      </trkpt>
      <trkpt lat="40.880425" lon="0.344310">
        <ele>1044.936</ele>
        <time>2020-10-02T11:27:20Z</time>
      </trkpt>
      <trkpt lat="40.880668" lon="0.344653">
        <ele>1046.047</ele>
        <time>2020-10-02T11:28:00Z</time>
      </trkpt>
      <trkpt lat="40.880944" lon="0.344760">
        <ele>1046.199</ele>
        <time>2020-10-02T11:28:40Z</time>
      </trkpt>
      <trkpt lat="40.881049" lon="0.344267">
        <ele>1063.267</ele>
        <time>2020-10-02T11:29:20Z</time>
      </trkpt>
      <trkpt lat="40.881439" lon="0.344288">
        <ele>1062.086</ele>
        <time>2020-10-02T11:30:00Z</time>
      </trkpt>
      <trkpt lat="40.881422" lon="0.344127">
        <ele>1067.367</ele>
        <time>2020-10-02T11:30:40Z</time>
      </trkpt>
      <trkpt lat="40.880928" lon="0.343891">
        <ele>1067.326</ele>
        <time>2020-10-02T11:31:20Z</time>
      </trkpt>
      <trkpt lat="40.880757" lon="0.343698">
        <ele>1066.622</ele>
        <time>2020-10-02T11:32:00Z</time>
      </trkpt>
      <trkpt lat="40.880627" lon="0.343280">
        <ele>1072.062</ele>
        <time>2020-10-02T11:32:40Z</time>
      </trkpt>
      <trkpt lat="40.880903" lon="0.343527">
        <ele>1073.408</ele>
        <time>2020-10-02T11:33:20Z</time>
      </trkpt>
      <trkpt lat="40.881471" lon="0.343666">
        <ele>1077.308</ele>
        <time>2020-10-02T11:34:00Z</time>
      </trkpt>
      <trkpt lat="40.881747" lon="0.343087">
        <ele>1088.247</ele>
        <time>2020-10-02T11:34:40Z</time>
      </trkpt>
      <trkpt lat="40.881933" lon="0.342786">
        <ele>1093.089</ele>
        <time>2020-10-02T11:35:20Z</time>
      </trkpt>
      <trkpt lat="40.881771" lon="0.342207">
        <ele>1109.130</ele>
        <time>2020-10-02T11:36:00Z</time>
      </trkpt>
      <trkpt lat="40.881804" lon="0.341810">
        <ele>1105.672</ele>
        <time>2020-10-02T11:36:40Z</time>
      </trkpt>
      <trkpt lat="40.882363" lon="0.341241">
        <ele>1098.260</ele>
        <time>2020-10-02T11:37:20Z</time>
      </trkpt>
      <trkpt lat="40.882680" lon="0.340919">
        <ele>1091.749</ele>
        <time>2020-10-02T11:38:00Z</time>
      </trkpt>
      <trkpt lat="40.883020" lon="0.341016">
        <ele>1088.250</ele>
        <time>2020-10-02T11:38:40Z</time>
      </trkpt>
      <trkpt lat="40.883377" lon="0.341027">
        <ele>1078.219</ele>
        <time>2020-10-02T11:39:20Z</time>
      </trkpt>
      <trkpt lat="40.883694" lon="0.340726">
        <ele>1058.563</ele>
        <time>2020-10-02T11:40:00Z</time>
      </trkpt>
      <trkpt lat="40.884172" lon="0.340437">
        <ele>1047.644</ele>
        <time>2020-10-02T11:40:40Z</time>
      </trkpt>
      <trkpt lat="40.884513" lon="0.340490">
        <ele>1039.818</ele>
        <time>2020-10-02T11:41:20Z</time>
      </trkpt>
      <trkpt lat="40.884602" lon="0.341209">
        <ele>1025.208</ele>
        <time>2020-10-02T11:42:00Z</time>
      </trkpt>
      <trkpt lat="40.884513" lon="0.341510">
        <ele>1016.981</ele>
        <time>2020-10-02T11:42:40Z</time>
      </trkpt>
      <trkpt lat="40.884424" lon="0.341628">
        <ele>1017.483</ele>
        <time>2020-10-02T11:43:20Z</time>
      </trkpt>
      <trkpt lat="40.884334" lon="0.342143">
        <ele>1009.254</ele>
        <time>2020-10-02T11:44:00Z</time>
      </trkpt>
      <trkpt lat="40.884634" lon="0.342282">
        <ele>994.416</ele>
        <time>2020-10-02T11:44:40Z</time>
      </trkpt>
      <trkpt lat="40.884683" lon="0.342647">
        <ele>978.094</ele>
        <time>2020-10-02T11:45:20Z</time>
      </trkpt>
      <trkpt lat="40.884610" lon="0.343119">
        <ele>957.873</ele>
        <time>2020-10-02T11:46:00Z</time>
      </trkpt>
      <trkpt lat="40.884399" lon="0.343634">
        <ele>949.864</ele>
        <time>2020-10-02T11:46:40Z</time>
      </trkpt>
      <trkpt lat="40.884821" lon="0.343934">
        <ele>918.623</ele>
        <time>2020-10-02T11:47:20Z</time>
      </trkpt>
      <trkpt lat="40.884756" lon="0.344192">
        <ele>909.295</ele>
        <time>2020-10-02T11:48:00Z</time>
      </trkpt>
      <trkpt lat="40.884651" lon="0.344310">
        <ele>905.249</ele>
        <time>2020-10-02T11:48:40Z</time>
      </trkpt>
      <trkpt lat="40.884683" lon="0.344439">
        <ele>896.723</ele>
        <time>2020-10-02T11:49:20Z</time>
      </trkpt>
      <trkpt lat="40.885000" lon="0.344546">
        <ele>894.908</ele>
        <time>2020-10-02T11:50:00Z</time>
      </trkpt>
      <trkpt lat="40.885486" lon="0.345007">
        <ele>873.084</ele>
        <time>2020-10-02T11:50:40Z</time>
      </trkpt>
      <trkpt lat="40.885843" lon="0.344675">
        <ele>878.396</ele>
        <time>2020-10-02T11:51:20Z</time>
      </trkpt>
      <trkpt lat="40.886111" lon="0.344503">
        <ele>870.587</ele>
        <time>2020-10-02T11:52:00Z</time>
      </trkpt>
      <trkpt lat="40.886249" lon="0.344632">
        <ele>857.569</ele>
        <time>2020-10-02T11:52:40Z</time>
      </trkpt>
      <trkpt lat="40.886857" lon="0.344793">
        <ele>806.217</ele>
        <time>2020-10-02T11:53:20Z</time>
      </trkpt>
      <trkpt lat="40.887198" lon="0.344288">
        <ele>793.486</ele>
        <time>2020-10-02T11:54:00Z</time>
      </trkpt>
      <trkpt lat="40.887271" lon="0.344052">
        <ele>791.347</ele>
        <time>2020-10-02T11:54:40Z</time>
      </trkpt>
      <trkpt lat="40.887271" lon="0.343752">
        <ele>791.836</ele>
        <time>2020-10-02T11:55:20Z</time>
      </trkpt>
      <trkpt lat="40.887555" lon="0.343409">
        <ele>785.097</ele>
        <time>2020-10-02T11:56:00Z</time>
      </trkpt>
      <trkpt lat="40.887838" lon="0.343012">
        <ele>784.923</ele>
        <time>2020-10-02T11:56:40Z</time>
      </trkpt>
      <trkpt lat="40.887847" lon="0.342765">
        <ele>789.125</ele>
        <time>2020-10-02T11:57:20Z</time>
      </trkpt>
      <trkpt lat="40.887838" lon="0.342357">
        <ele>791.308</ele>
        <time>2020-10-02T11:58:00Z</time>
      </trkpt>
      <trkpt lat="40.887774" lon="0.342207">
        <ele>793.154</ele>
        <time>2020-10-02T11:58:40Z</time>
      </trkpt>
      <trkpt lat="40.887579" lon="0.341928">
        <ele>798.326</ele>
        <time>2020-10-02T11:59:20Z</time>
      </trkpt>
      <trkpt lat="40.887855" lon="0.341306">
        <ele>804.377</ele>
        <time>2020-10-02T12:00:00Z</time>
      </trkpt>
      <trkpt lat="40.887660" lon="0.340426">
        <ele>820.179</ele>
        <time>2020-10-02T12:00:40Z</time>
      </trkpt>
      <trkpt lat="40.887660" lon="0.339589">
        <ele>830.927</ele>
        <time>2020-10-02T12:01:20Z</time>
      </trkpt>
      <trkpt lat="40.887676" lon="0.339074">
        <ele>834.236</ele>
        <time>2020-10-02T12:02:00Z</time>
      </trkpt>
      <trkpt lat="40.886979" lon="0.337958">
        <ele>852.167</ele>
        <time>2020-10-02T12:02:40Z</time>
      </trkpt>
      <trkpt lat="40.886816" lon="0.337164">
        <ele>850.486</ele>
        <time>2020-10-02T12:03:20Z</time>
      </trkpt>
      <trkpt lat="40.887303" lon="0.336092">
        <ele>855.421</ele>
        <time>2020-10-02T12:04:00Z</time>
      </trkpt>
      <trkpt lat="40.887822" lon="0.335641">
        <ele>858.841</ele>
        <time>2020-10-02T12:04:40Z</time>
      </trkpt>
      <trkpt lat="40.888471" lon="0.335491">
        <ele>863.205</ele>
        <time>2020-10-02T12:05:20Z</time>
      </trkpt>
      <trkpt lat="40.888617" lon="0.335255">
        <ele>865.808</ele>
        <time>2020-10-02T12:06:00Z</time>
      </trkpt>
      <trkpt lat="40.888341" lon="0.334632">
        <ele>872.467</ele>
        <time>2020-10-02T12:06:40Z</time>
      </trkpt>
      <trkpt lat="40.888163" lon="0.334032">
        <ele>878.169</ele>
        <time>2020-10-02T12:07:20Z</time>
      </trkpt>
      <trkpt lat="40.888260" lon="0.333366">
        <ele>887.230</ele>
        <time>2020-10-02T12:08:00Z</time>
      </trkpt>
      <trkpt lat="40.888860" lon="0.333216">
        <ele>892.462</ele>
        <time>2020-10-02T12:08:40Z</time>
      </trkpt>
      <trkpt lat="40.889834" lon="0.333345">
        <ele>899.920</ele>
        <time>2020-10-02T12:09:20Z</time>
      </trkpt>
      <trkpt lat="40.890645" lon="0.333602">
        <ele>908.919</ele>
        <time>2020-10-02T12:10:00Z</time>
      </trkpt>
      <trkpt lat="40.891326" lon="0.333002">
        <ele>907.940</ele>
        <time>2020-10-02T12:10:40Z</time>
      </trkpt>
      <trkpt lat="40.891813" lon="0.331821">
        <ele>917.759</ele>
        <time>2020-10-02T12:11:20Z</time>
      </trkpt>
      <trkpt lat="40.891959" lon="0.331328">
        <ele>919.614</ele>
        <time>2020-10-02T12:12:00Z</time>
      </trkpt>
      <trkpt lat="40.892299" lon="0.330877">
        <ele>915.754</ele>
        <time>2020-10-02T12:12:40Z</time>
      </trkpt>
      <trkpt lat="40.892591" lon="0.330212">
        <ele>911.109</ele>
        <time>2020-10-02T12:13:20Z</time>
      </trkpt>
      <trkpt lat="40.893354" lon="0.331800">
        <ele>899.308</ele>
        <time>2020-10-02T12:14:00Z</time>
      </trkpt>
      <trkpt lat="40.894100" lon="0.330877">
        <ele>913.196</ele>
        <time>2020-10-02T12:14:40Z</time>
      </trkpt>
      <trkpt lat="40.894651" lon="0.330341">
        <ele>909.338</ele>
        <time>2020-10-02T12:15:20Z</time>
      </trkpt>
      <trkpt lat="40.895186" lon="0.330062">
        <ele>884.159</ele>
        <time>2020-10-02T12:16:00Z</time>
      </trkpt>
      <trkpt lat="40.895397" lon="0.329547">
        <ele>904.621</ele>
        <time>2020-10-02T12:16:40Z</time>
      </trkpt>
      <trkpt lat="40.895673" lon="0.328817">
        <ele>911.279</ele>
        <time>2020-10-02T12:17:20Z</time>
      </trkpt>
      <trkpt lat="40.896306" lon="0.328259">
        <ele>884.798</ele>
        <time>2020-10-02T12:18:00Z</time>
      </trkpt>
      <trkpt lat="40.896987" lon="0.327702">
        <ele>863.169</ele>
        <time>2020-10-02T12:18:40Z</time>
      </trkpt>
      <trkpt lat="40.897717" lon="0.327272">
        <ele>874.328</ele>
        <time>2020-10-02T12:19:20Z</time>
      </trkpt>
      <trkpt lat="40.897976" lon="0.327744">
        <ele>892.683</ele>
        <time>2020-10-02T12:20:00Z</time>
      </trkpt>
      <trkpt lat="40.898414" lon="0.328238">
        <ele>902.025</ele>
        <time>2020-10-02T12:20:40Z</time>
      </trkpt>
      <trkpt lat="40.898755" lon="0.329032">
        <ele>881.817</ele>
        <time>2020-10-02T12:21:20Z</time>
      </trkpt>
      <trkpt lat="40.898949" lon="0.329354">
        <ele>877.908</ele>
        <time>2020-10-02T12:22:00Z</time>
      </trkpt>
      <trkpt lat="40.899371" lon="0.329429">
        <ele>890.453</ele>
        <time>2020-10-02T12:22:40Z</time>
      </trkpt>
      <trkpt lat="40.899631" lon="0.329912">
        <ele>856.785</ele>
        <time>2020-10-02T12:23:20Z</time>
      </trkpt>
      <trkpt lat="40.899971" lon="0.330116">
        <ele>857.476</ele>
        <time>2020-10-02T12:24:00Z</time>
      </trkpt>
      <trkpt lat="40.900498" lon="0.330588">
        <ele>864.578</ele>
        <time>2020-10-02T12:24:40Z</time>
      </trkpt>
      <trkpt lat="40.901098" lon="0.330985">
        <ele>870.726</ele>
        <time>2020-10-02T12:25:20Z</time>
      </trkpt>
      <trkpt lat="40.901626" lon="0.331146">
        <ele>904.595</ele>
        <time>2020-10-02T12:26:00Z</time>
      </trkpt>
      <trkpt lat="40.901609" lon="0.330727">
        <ele>918.344</ele>
        <time>2020-10-02T09:48:14Z</time>
      </trkpt>
      <trkpt lat="40.901516" lon="0.330475">
        <ele>912.805</ele>
        <time>2020-10-02T09:48:54Z</time>
      </trkpt>
      <trkpt lat="40.901330" lon="0.330126">
        <ele>898.615</ele>
        <time>2020-10-02T09:49:34Z</time>
      </trkpt>
      <trkpt lat="40.901131" lon="0.329896">
        <ele>895.808</ele>
        <time>2020-10-02T09:50:14Z</time>
      </trkpt>
      <trkpt lat="40.900936" lon="0.329686">
        <ele>905.489</ele>
        <time>2020-10-02T09:50:54Z</time>
      </trkpt>
      <trkpt lat="40.900733" lon="0.329520">
        <ele>915.071</ele>
        <time>2020-10-02T09:51:34Z</time>
      </trkpt>
      <trkpt lat="40.900608" lon="0.329381">
        <ele>919.620</ele>
        <time>2020-10-02T09:52:14Z</time>
      </trkpt>
      <trkpt lat="40.900446" lon="0.329096">
        <ele>926.823</ele>
        <time>2020-10-02T09:52:54Z</time>
      </trkpt>
      <trkpt lat="40.900365" lon="0.328909">
        <ele>931.983</ele>
        <time>2020-10-02T09:53:34Z</time>
      </trkpt>
      <trkpt lat="40.900202" lon="0.328726">
        <ele>939.556</ele>
        <time>2020-10-02T09:54:14Z</time>
      </trkpt>
      <trkpt lat="40.900020" lon="0.328603">
        <ele>947.748</ele>
        <time>2020-10-02T09:54:54Z</time>
      </trkpt>
      <trkpt lat="40.899931" lon="0.328490">
        <ele>954.216</ele>
        <time>2020-10-02T09:55:34Z</time>
      </trkpt>
      <trkpt lat="40.899825" lon="0.328318">
        <ele>963.899</ele>
        <time>2020-10-02T09:56:14Z</time>
      </trkpt>
      <trkpt lat="40.899756" lon="0.328077">
        <ele>968.907</ele>
        <time>2020-10-02T09:56:54Z</time>
      </trkpt>
      <trkpt lat="40.899691" lon="0.327782">
        <ele>971.627</ele>
        <time>2020-10-02T09:57:34Z</time>
      </trkpt>
      <trkpt lat="40.899890" lon="0.327616">
        <ele>975.808</ele>
        <time>2020-10-02T09:58:14Z</time>
      </trkpt>
      <trkpt lat="40.900194" lon="0.327535">
        <ele>985.674</ele>
        <time>2020-10-02T09:58:54Z</time>
      </trkpt>
      <trkpt lat="40.900470" lon="0.327401">
        <ele>989.086</ele>
        <time>2020-10-02T09:59:34Z</time>
      </trkpt>
      <trkpt lat="40.900685" lon="0.327203">
        <ele>988.995</ele>
        <time>2020-10-02T10:00:14Z</time>
      </trkpt>
      <trkpt lat="40.900871" lon="0.327047">
        <ele>988.488</ele>
        <time>2020-10-02T10:00:54Z</time>
      </trkpt>
      <trkpt lat="40.900867" lon="0.326892">
        <ele>989.488</ele>
        <time>2020-10-02T10:01:34Z</time>
      </trkpt>
      <trkpt lat="40.900750" lon="0.326897">
        <ele>991.821</ele>
        <time>2020-10-02T10:02:14Z</time>
      </trkpt>
      <trkpt lat="40.900563" lon="0.326875">
        <ele>995.183</ele>
        <time>2020-10-02T10:02:54Z</time>
      </trkpt>
      <trkpt lat="40.900490" lon="0.326763">
        <ele>992.931</ele>
        <time>2020-10-02T10:03:34Z</time>
      </trkpt>
      <trkpt lat="40.900644" lon="0.326554">
        <ele>988.587</ele>
        <time>2020-10-02T10:04:14Z</time>
      </trkpt>
      <trkpt lat="40.900498" lon="0.326768">
        <ele>993.142</ele>
        <time>2020-10-02T10:04:54Z</time>
      </trkpt>
      <trkpt lat="40.900563" lon="0.326870">
        <ele>995.126</ele>
        <time>2020-10-02T10:05:34Z</time>
      </trkpt>
      <trkpt lat="40.900871" lon="0.326908">
        <ele>989.308</ele>
        <time>2020-10-02T10:06:14Z</time>
      </trkpt>
      <trkpt lat="40.900875" lon="0.327063">
        <ele>988.263</ele>
        <time>2020-10-02T10:06:54Z</time>
      </trkpt>
      <trkpt lat="40.900579" lon="0.327278">
        <ele>989.035</ele>
        <time>2020-10-02T10:07:34Z</time>
      </trkpt>
      <trkpt lat="40.900348" lon="0.327471">
        <ele>989.624</ele>
        <time>2020-10-02T10:08:14Z</time>
      </trkpt>
      <trkpt lat="40.900052" lon="0.327567">
        <ele>980.967</ele>
        <time>2020-10-02T10:08:54Z</time>
      </trkpt>
      <trkpt lat="40.899906" lon="0.327567">
        <ele>977.767</ele>
        <time>2020-10-02T10:09:34Z</time>
      </trkpt>
      <trkpt lat="40.899752" lon="0.327401">
        <ele>975.210</ele>
        <time>2020-10-02T10:10:14Z</time>
      </trkpt>
      <trkpt lat="40.899570" lon="0.327197">
        <ele>964.152</ele>
        <time>2020-10-02T10:10:54Z</time>
      </trkpt>
      <trkpt lat="40.899347" lon="0.327063">
        <ele>949.880</ele>
        <time>2020-10-02T10:11:34Z</time>
      </trkpt>
      <trkpt lat="40.899144" lon="0.326913">
        <ele>938.924</ele>
        <time>2020-10-02T10:12:14Z</time>
      </trkpt>
      <trkpt lat="40.898982" lon="0.326843">
        <ele>932.904</ele>
        <time>2020-10-02T10:12:54Z</time>
      </trkpt>
      <trkpt lat="40.898812" lon="0.326747">
        <ele>920.914</ele>
        <time>2020-10-02T10:13:34Z</time>
      </trkpt>
      <trkpt lat="40.898698" lon="0.326720">
        <ele>910.408</ele>
        <time>2020-10-02T10:14:14Z</time>
      </trkpt>
      <trkpt lat="40.898572" lon="0.326688">
        <ele>899.117</ele>
        <time>2020-10-02T10:14:54Z</time>
      </trkpt>
      <trkpt lat="40.898475" lon="0.326613">
        <ele>887.089</ele>
        <time>2020-10-02T10:15:34Z</time>
      </trkpt>
      <trkpt lat="40.898353" lon="0.326682">
        <ele>883.248</ele>
        <time>2020-10-02T10:16:14Z</time>
      </trkpt>
      <trkpt lat="40.898313" lon="0.326784">
        <ele>886.121</ele>
        <time>2020-10-02T10:16:54Z</time>
      </trkpt>
      <trkpt lat="40.898171" lon="0.326854">
        <ele>884.651</ele>
        <time>2020-10-02T10:17:34Z</time>
      </trkpt>
      <trkpt lat="40.897960" lon="0.327031">
        <ele>882.574</ele>
        <time>2020-10-02T10:18:14Z</time>
      </trkpt>
      <trkpt lat="40.897790" lon="0.327203">
        <ele>876.376</ele>
        <time>2020-10-02T10:18:54Z</time>
      </trkpt>
      <trkpt lat="40.897636" lon="0.327407">
        <ele>874.934</ele>
        <time>2020-10-02T10:19:34Z</time>
      </trkpt>
      <trkpt lat="40.897522" lon="0.327530">
        <ele>874.514</ele>
        <time>2020-10-02T10:20:14Z</time>
      </trkpt>
      <trkpt lat="40.897388" lon="0.327578">
        <ele>869.954</ele>
        <time>2020-10-02T10:20:54Z</time>
      </trkpt>
      <trkpt lat="40.897291" lon="0.327573">
        <ele>865.309</ele>
        <time>2020-10-02T10:21:34Z</time>
      </trkpt>
      <trkpt lat="40.897044" lon="0.327471">
        <ele>852.208</ele>
        <time>2020-10-02T10:22:14Z</time>
      </trkpt>
      <trkpt lat="40.896910" lon="0.327342">
        <ele>845.316</ele>
        <time>2020-10-02T10:22:54Z</time>
      </trkpt>
      <trkpt lat="40.896796" lon="0.327256">
        <ele>844.328</ele>
        <time>2020-10-02T10:23:34Z</time>
      </trkpt>
      <trkpt lat="40.896642" lon="0.327229">
        <ele>846.917</ele>
        <time>2020-10-02T10:24:14Z</time>
      </trkpt>
      <trkpt lat="40.896427" lon="0.327229">
        <ele>853.120</ele>
        <time>2020-10-02T10:24:54Z</time>
      </trkpt>
      <trkpt lat="40.896176" lon="0.327181">
        <ele>859.490</ele>
        <time>2020-10-02T10:25:34Z</time>
      </trkpt>
      <trkpt lat="40.896054" lon="0.327015">
        <ele>853.323</ele>
        <time>2020-10-02T10:26:14Z</time>
      </trkpt>
      <trkpt lat="40.895933" lon="0.326800">
        <ele>839.735</ele>
        <time>2020-10-02T10:26:54Z</time>
      </trkpt>
      <trkpt lat="40.895843" lon="0.326698">
        <ele>832.063</ele>
        <time>2020-10-02T10:27:34Z</time>
      </trkpt>
      <trkpt lat="40.895697" lon="0.326639">
        <ele>830.397</ele>
        <time>2020-10-02T10:28:14Z</time>
      </trkpt>
      <trkpt lat="40.895608" lon="0.326409">
        <ele>826.923</ele>
        <time>2020-10-02T10:28:54Z</time>
      </trkpt>
      <trkpt lat="40.895499" lon="0.326200">
        <ele>825.825</ele>
        <time>2020-10-02T10:29:34Z</time>
      </trkpt>
      <trkpt lat="40.895401" lon="0.325969">
        <ele>821.408</ele>
        <time>2020-10-02T10:30:14Z</time>
      </trkpt>
      <trkpt lat="40.895337" lon="0.325567">
        <ele>805.374</ele>
        <time>2020-10-02T10:30:54Z</time>
      </trkpt>
      <trkpt lat="40.895389" lon="0.325239">
        <ele>790.376</ele>
        <time>2020-10-02T10:31:34Z</time>
      </trkpt>
      <trkpt lat="40.895397" lon="0.324939">
        <ele>778.645</ele>
        <time>2020-10-02T10:32:14Z</time>
      </trkpt>
      <trkpt lat="40.895332" lon="0.324746">
        <ele>773.728</ele>
        <time>2020-10-02T10:32:54Z</time>
      </trkpt>
      <trkpt lat="40.895539" lon="0.324703">
        <ele>767.838</ele>
        <time>2020-10-02T10:33:34Z</time>
      </trkpt>
      <trkpt lat="40.895434" lon="0.324483">
        <ele>762.281</ele>
        <time>2020-10-02T10:34:14Z</time>
      </trkpt>
      <trkpt lat="40.895345" lon="0.324483">
        <ele>763.023</ele>
        <time>2020-10-02T10:34:54Z</time>
      </trkpt>
      <trkpt lat="40.894850" lon="0.324579">
        <ele>769.191</ele>
        <time>2020-10-02T10:35:34Z</time>
      </trkpt>
      <trkpt lat="40.894951" lon="0.324424">
        <ele>760.434</ele>
        <time>2020-10-02T10:36:14Z</time>
      </trkpt>
      <trkpt lat="40.895296" lon="0.324311">
        <ele>758.155</ele>
        <time>2020-10-02T10:36:54Z</time>
      </trkpt>
      <trkpt lat="40.895462" lon="0.324183">
        <ele>754.410</ele>
        <time>2020-10-02T10:37:34Z</time>
      </trkpt>
      <trkpt lat="40.895426" lon="0.323904">
        <ele>745.608</ele>
        <time>2020-10-02T10:38:14Z</time>
      </trkpt>
      <trkpt lat="40.895259" lon="0.323887">
        <ele>742.688</ele>
        <time>2020-10-02T10:38:54Z</time>
      </trkpt>
      <trkpt lat="40.895158" lon="0.323855">
        <ele>739.930</ele>
        <time>2020-10-02T10:39:34Z</time>
      </trkpt>
      <trkpt lat="40.894988" lon="0.323802">
        <ele>735.589</ele>
        <time>2020-10-02T10:40:14Z</time>
      </trkpt>
      <trkpt lat="40.894716" lon="0.323909">
        <ele>737.172</ele>
        <time>2020-10-02T10:40:54Z</time>
      </trkpt>
      <trkpt lat="40.894813" lon="0.323598">
        <ele>726.842</ele>
        <time>2020-10-02T10:41:34Z</time>
      </trkpt>
      <trkpt lat="40.894943" lon="0.323448">
        <ele>721.595</ele>
        <time>2020-10-02T10:42:14Z</time>
      </trkpt>
      <trkpt lat="40.895101" lon="0.323523">
        <ele>725.677</ele>
        <time>2020-10-02T10:42:54Z</time>
      </trkpt>
      <trkpt lat="40.895276" lon="0.323254">
        <ele>717.165</ele>
        <time>2020-10-02T10:43:34Z</time>
      </trkpt>
      <trkpt lat="40.895207" lon="0.323077">
        <ele>709.839</ele>
        <time>2020-10-02T10:44:14Z</time>
      </trkpt>
      <trkpt lat="40.895235" lon="0.322927">
        <ele>706.401</ele>
        <time>2020-10-02T10:44:54Z</time>
      </trkpt>
      <trkpt lat="40.895211" lon="0.322766">
        <ele>702.021</ele>
        <time>2020-10-02T10:45:34Z</time>
      </trkpt>
      <trkpt lat="40.895146" lon="0.322680">
        <ele>698.208</ele>
        <time>2020-10-02T10:46:14Z</time>
      </trkpt>
      <trkpt lat="40.895150" lon="0.322434">
        <ele>692.138</ele>
        <time>2020-10-02T10:46:54Z</time>
      </trkpt>
      <trkpt lat="40.895138" lon="0.322021">
        <ele>683.020</ele>
        <time>2020-10-02T10:47:34Z</time>
      </trkpt>
      <trkpt lat="40.895178" lon="0.321758">
        <ele>679.559</ele>
        <time>2020-10-02T10:48:14Z</time>
      </trkpt>
      <trkpt lat="40.895341" lon="0.321463">
        <ele>671.332</ele>
        <time>2020-10-02T10:48:54Z</time>
      </trkpt>
      <trkpt lat="40.895511" lon="0.321189">
        <ele>665.192</ele>
        <time>2020-10-02T10:49:34Z</time>
      </trkpt>
      <trkpt lat="40.895916" lon="0.320964">
        <ele>650.595</ele>
        <time>2020-10-02T10:50:14Z</time>
      </trkpt>
      <trkpt lat="40.896285" lon="0.320749">
        <ele>637.757</ele>
        <time>2020-10-02T10:50:54Z</time>
      </trkpt>
      <trkpt lat="40.896512" lon="0.320540">
        <ele>629.055</ele>
        <time>2020-10-02T10:51:34Z</time>
      </trkpt>
      <trkpt lat="40.896764" lon="0.320283">
        <ele>622.919</ele>
        <time>2020-10-02T10:52:14Z</time>
      </trkpt>
      <trkpt lat="40.896950" lon="0.320057">
        <ele>623.009</ele>
        <time>2020-10-02T10:52:54Z</time>
      </trkpt>
      <trkpt lat="40.897234" lon="0.319934">
        <ele>624.919</ele>
        <time>2020-10-02T10:53:34Z</time>
      </trkpt>
      <trkpt lat="40.897559" lon="0.319961">
        <ele>618.508</ele>
        <time>2020-10-02T10:54:14Z</time>
      </trkpt>
      <trkpt lat="40.897919" lon="0.319864">
        <ele>614.796</ele>
        <time>2020-10-02T10:54:54Z</time>
      </trkpt>
      <trkpt lat="40.898143" lon="0.319821">
        <ele>614.548</ele>
        <time>2020-10-02T10:55:34Z</time>
      </trkpt>
      <trkpt lat="40.898321" lon="0.319848">
        <ele>613.097</ele>
        <time>2020-10-02T10:56:14Z</time>
      </trkpt>
      <trkpt lat="40.898564" lon="0.319843">
        <ele>611.650</ele>
        <time>2020-10-02T10:56:54Z</time>
      </trkpt>
      <trkpt lat="40.898783" lon="0.319752">
        <ele>608.640</ele>
        <time>2020-10-02T10:57:34Z</time>
      </trkpt>
      <trkpt lat="40.898978" lon="0.319553">
        <ele>605.153</ele>
        <time>2020-10-02T10:58:14Z</time>
      </trkpt>
      <trkpt lat="40.899327" lon="0.319108">
        <ele>602.715</ele>
        <time>2020-10-02T10:58:54Z</time>
      </trkpt>
      <trkpt lat="40.899687" lon="0.318786">
        <ele>591.133</ele>
        <time>2020-10-02T10:59:34Z</time>
      </trkpt>
      <trkpt lat="40.899979" lon="0.318512">
        <ele>580.291</ele>
        <time>2020-10-02T11:00:14Z</time>
      </trkpt>
      <trkpt lat="40.900235" lon="0.318303">
        <ele>576.581</ele>
        <time>2020-10-02T11:00:54Z</time>
      </trkpt>
      <trkpt lat="40.900482" lon="0.317992">
        <ele>576.819</ele>
        <time>2020-10-02T11:01:34Z</time>
      </trkpt>
      <trkpt lat="40.900677" lon="0.317724">
        <ele>576.108</ele>
        <time>2020-10-02T11:02:14Z</time>
      </trkpt>
      <trkpt lat="40.900952" lon="0.317627">
        <ele>576.114</ele>
        <time>2020-10-02T11:02:54Z</time>
      </trkpt>
      <trkpt lat="40.901127" lon="0.317338">
        <ele>573.426</ele>
        <time>2020-10-02T11:03:34Z</time>
      </trkpt>
      <trkpt lat="40.901224" lon="0.317075">
        <ele>572.485</ele>
        <time>2020-10-02T11:04:14Z</time>
      </trkpt>
      <trkpt lat="40.901167" lon="0.316710">
        <ele>568.898</ele>
        <time>2020-10-02T11:04:54Z</time>
      </trkpt>
      <trkpt lat="40.901029" lon="0.316388">
        <ele>563.728</ele>
        <time>2020-10-02T11:05:34Z</time>
      </trkpt>
      <trkpt lat="40.900993" lon="0.316098">
        <ele>560.691</ele>
        <time>2020-10-02T11:06:14Z</time>
      </trkpt>
      <trkpt lat="40.901054" lon="0.315771">
        <ele>558.143</ele>
        <time>2020-10-02T11:06:54Z</time>
      </trkpt>
      <trkpt lat="40.901139" lon="0.315380">
        <ele>554.821</ele>
        <time>2020-10-02T11:07:34Z</time>
      </trkpt>
      <trkpt lat="40.900652" lon="0.315750">
        <ele>557.941</ele>
        <time>2020-10-02T11:08:14Z</time>
      </trkpt>
      <trkpt lat="40.900279" lon="0.315428">
        <ele>560.481</ele>
        <time>2020-10-02T11:08:54Z</time>
      </trkpt>
      <trkpt lat="40.899760" lon="0.315042">
        <ele>563.209</ele>
        <time>2020-10-02T11:09:34Z</time>
      </trkpt>
      <trkpt lat="40.899355" lon="0.314183">
        <ele>566.108</ele>
        <time>2020-10-02T11:10:14Z</time>
      </trkpt>
      <trkpt lat="40.898868" lon="0.313432">
        <ele>569.499</ele>
        <time>2020-10-02T11:10:54Z</time>
      </trkpt>
      <trkpt lat="40.898349" lon="0.312724">
        <ele>570.971</ele>
        <time>2020-10-02T11:11:34Z</time>
      </trkpt>
      <trkpt lat="40.897895" lon="0.311844">
        <ele>578.830</ele>
        <time>2020-10-02T11:12:14Z</time>
      </trkpt>
      <trkpt lat="40.897490" lon="0.311394">
        <ele>577.193</ele>
        <time>2020-10-02T11:12:54Z</time>
      </trkpt>
      <trkpt lat="40.896760" lon="0.310814">
        <ele>593.413</ele>
        <time>2020-10-02T11:13:34Z</time>
      </trkpt>
      <trkpt lat="40.895933" lon="0.310321">
        <ele>603.776</ele>
        <time>2020-10-02T11:14:14Z</time>
      </trkpt>
      <trkpt lat="40.895397" lon="0.310085">
        <ele>606.758</ele>
        <time>2020-10-02T11:14:54Z</time>
      </trkpt>
      <trkpt lat="40.894878" lon="0.310235">
        <ele>611.886</ele>
        <time>2020-10-02T11:15:34Z</time>
      </trkpt>
      <trkpt lat="40.894100" lon="0.310493">
        <ele>617.019</ele>
        <time>2020-10-02T11:16:14Z</time>
      </trkpt>
      <trkpt lat="40.893370" lon="0.310557">
        <ele>616.309</ele>
        <time>2020-10-02T11:16:54Z</time>
      </trkpt>
      <trkpt lat="40.892526" lon="0.310171">
        <ele>617.619</ele>
        <time>2020-10-02T11:17:34Z</time>
      </trkpt>
      <trkpt lat="40.892040" lon="0.309892">
        <ele>613.908</ele>
        <time>2020-10-02T11:18:14Z</time>
      </trkpt>
      <trkpt lat="40.891878" lon="0.309527">
        <ele>605.056</ele>
        <time>2020-10-02T11:18:54Z</time>
      </trkpt>
      <trkpt lat="40.891504" lon="0.309441">
        <ele>602.538</ele>
        <time>2020-10-02T11:19:34Z</time>
      </trkpt>
      <trkpt lat="40.891618" lon="0.309119">
        <ele>594.397</ele>
        <time>2020-10-02T11:20:14Z</time>
      </trkpt>
      <trkpt lat="40.891196" lon="0.308776">
        <ele>591.580</ele>
        <time>2020-10-02T11:20:54Z</time>
      </trkpt>
      <trkpt lat="40.891148" lon="0.308218">
        <ele>586.790</ele>
        <time>2020-10-02T11:21:34Z</time>
      </trkpt>
      <trkpt lat="40.890742" lon="0.307767">
        <ele>585.993</ele>
        <time>2020-10-02T11:22:14Z</time>
      </trkpt>
      <trkpt lat="40.890466" lon="0.307424">
        <ele>582.885</ele>
        <time>2020-10-02T11:22:54Z</time>
      </trkpt>
      <trkpt lat="40.890499" lon="0.307167">
        <ele>579.323</ele>
        <time>2020-10-02T11:23:34Z</time>
      </trkpt>
      <trkpt lat="40.890158" lon="0.306780">
        <ele>572.766</ele>
        <time>2020-10-02T11:24:14Z</time>
      </trkpt>
      <trkpt lat="40.889736" lon="0.306995">
        <ele>570.129</ele>
        <time>2020-10-02T11:24:54Z</time>
      </trkpt>
      <trkpt lat="40.889428" lon="0.306630">
        <ele>563.021</ele>
        <time>2020-10-02T11:25:34Z</time>
      </trkpt>
      <trkpt lat="40.889396" lon="0.306222">
        <ele>562.208</ele>
        <time>2020-10-02T11:26:14Z</time>
      </trkpt>
      <trkpt lat="40.889444" lon="0.305536">
        <ele>562.761</ele>
        <time>2020-10-02T11:26:54Z</time>
      </trkpt>
      <trkpt lat="40.889331" lon="0.305085">
        <ele>554.493</ele>
        <time>2020-10-02T11:27:34Z</time>
      </trkpt>
      <trkpt lat="40.888568" lon="0.304742">
        <ele>556.722</ele>
        <time>2020-10-02T11:28:14Z</time>
      </trkpt>
      <trkpt lat="40.888309" lon="0.304506">
        <ele>554.185</ele>
        <time>2020-10-02T11:28:54Z</time>
      </trkpt>
      <trkpt lat="40.887838" lon="0.304463">
        <ele>550.845</ele>
        <time>2020-10-02T11:29:34Z</time>
      </trkpt>
      <trkpt lat="40.887400" lon="0.303841">
        <ele>545.968</ele>
        <time>2020-10-02T11:30:14Z</time>
      </trkpt>
      <trkpt lat="40.886914" lon="0.303047">
        <ele>530.850</ele>
        <time>2020-10-02T11:30:54Z</time>
      </trkpt>
      <trkpt lat="40.886752" lon="0.302703">
        <ele>528.268</ele>
        <time>2020-10-02T11:31:34Z</time>
      </trkpt>
      <trkpt lat="40.886946" lon="0.302424">
        <ele>530.333</ele>
        <time>2020-10-02T11:32:14Z</time>
      </trkpt>
      <trkpt lat="40.886800" lon="0.301974">
        <ele>529.723</ele>
        <time>2020-10-02T11:32:54Z</time>
      </trkpt>
      <trkpt lat="40.886719" lon="0.301137">
        <ele>530.515</ele>
        <time>2020-10-02T11:33:34Z</time>
      </trkpt>
      <trkpt lat="40.886508" lon="0.300558">
        <ele>527.308</ele>
        <time>2020-10-02T11:34:14Z</time>
      </trkpt>
      <trkpt lat="40.886346" lon="0.300021">
        <ele>522.768</ele>
        <time>2020-10-02T11:34:54Z</time>
      </trkpt>
      <trkpt lat="40.886427" lon="0.299399">
        <ele>518.850</ele>
        <time>2020-10-02T11:35:34Z</time>
      </trkpt>
      <trkpt lat="40.887076" lon="0.298626">
        <ele>514.619</ele>
        <time>2020-10-02T11:36:14Z</time>
      </trkpt>
      <trkpt lat="40.887855" lon="0.298626">
        <ele>522.792</ele>
        <time>2020-10-02T11:36:54Z</time>
      </trkpt>
      <trkpt lat="40.888374" lon="0.298047">
        <ele>516.022</ele>
        <time>2020-10-02T11:37:34Z</time>
      </trkpt>
      <trkpt lat="40.889201" lon="0.297575">
        <ele>513.215</ele>
        <time>2020-10-02T11:38:14Z</time>
      </trkpt>
      <trkpt lat="40.890045" lon="0.297682">
        <ele>526.527</ele>
        <time>2020-10-02T11:38:54Z</time>
      </trkpt>
      <trkpt lat="40.890596" lon="0.298219">
        <ele>511.865</ele>
        <time>2020-10-02T11:39:34Z</time>
      </trkpt>
      <trkpt lat="40.890758" lon="0.298884">
        <ele>508.087</ele>
        <time>2020-10-02T11:40:14Z</time>
      </trkpt>
      <trkpt lat="40.891180" lon="0.299871">
        <ele>508.142</ele>
        <time>2020-10-02T11:40:54Z</time>
      </trkpt>
      <trkpt lat="40.891780" lon="0.300236">
        <ele>513.426</ele>
        <time>2020-10-02T11:41:34Z</time>
      </trkpt>
      <trkpt lat="40.892867" lon="0.299420">
        <ele>505.108</ele>
        <time>2020-10-02T11:42:14Z</time>
      </trkpt>
      <trkpt lat="40.893548" lon="0.298626">
        <ele>504.493</ele>
        <time>2020-10-02T11:42:54Z</time>
      </trkpt>
      <trkpt lat="40.893889" lon="0.297618">
        <ele>497.665</ele>
        <time>2020-10-02T11:43:34Z</time>
      </trkpt>
      <trkpt lat="40.894246" lon="0.296652">
        <ele>507.664</ele>
        <time>2020-10-02T11:44:14Z</time>
      </trkpt>
      <trkpt lat="40.894489" lon="0.295815">
        <ele>509.337</ele>
        <time>2020-10-02T11:44:54Z</time>
      </trkpt>
      <trkpt lat="40.894732" lon="0.294936">
        <ele>487.827</ele>
        <time>2020-10-02T11:45:34Z</time>
      </trkpt>
      <trkpt lat="40.895608" lon="0.294850">
        <ele>495.550</ele>
        <time>2020-10-02T11:46:14Z</time>
      </trkpt>
      <trkpt lat="40.896322" lon="0.294271">
        <ele>490.922</ele>
        <time>2020-10-02T11:46:54Z</time>
      </trkpt>
      <trkpt lat="40.896500" lon="0.293562">
        <ele>488.450</ele>
        <time>2020-10-02T11:47:34Z</time>
      </trkpt>
      <trkpt lat="40.897019" lon="0.292876">
        <ele>486.468</ele>
        <time>2020-10-02T11:48:14Z</time>
      </trkpt>
      <trkpt lat="40.897765" lon="0.293326">
        <ele>484.442</ele>
        <time>2020-10-02T11:48:54Z</time>
      </trkpt>
      <trkpt lat="40.898609" lon="0.293498">
        <ele>485.026</ele>
        <time>2020-10-02T11:49:34Z</time>
      </trkpt>
      <trkpt lat="40.899501" lon="0.293241">
        <ele>489.508</ele>
        <time>2020-10-02T11:50:14Z</time>
      </trkpt>
      <trkpt lat="40.899566" lon="0.292554">
        <ele>482.731</ele>
        <time>2020-10-02T11:50:54Z</time>
      </trkpt>
      <trkpt lat="40.899825" lon="0.291481">
        <ele>485.033</ele>
        <time>2020-10-02T11:51:34Z</time>
      </trkpt>
      <trkpt lat="40.899906" lon="0.289850">
        <ele>482.852</ele>
        <time>2020-10-02T11:52:14Z</time>
      </trkpt>
      <trkpt lat="40.900247" lon="0.289099">
        <ele>478.615</ele>
        <time>2020-10-02T11:52:54Z</time>
      </trkpt>
      <trkpt lat="40.900750" lon="0.288391">
        <ele>477.185</ele>
        <time>2020-10-02T11:53:34Z</time>
      </trkpt>
      <trkpt lat="40.901334" lon="0.287704">
        <ele>474.788</ele>
        <time>2020-10-02T11:54:14Z</time>
      </trkpt>
      <trkpt lat="40.902258" lon="0.287511">
        <ele>471.930</ele>
        <time>2020-10-02T11:54:54Z</time>
      </trkpt>
      <trkpt lat="40.903101" lon="0.287533">
        <ele>468.498</ele>
        <time>2020-10-02T11:55:34Z</time>
      </trkpt>
      <trkpt lat="40.903993" lon="0.287812">
        <ele>474.889</ele>
        <time>2020-10-02T11:56:14Z</time>
      </trkpt>
      <trkpt lat="40.904739" lon="0.287511">
        <ele>475.806</ele>
        <time>2020-10-02T11:56:54Z</time>
      </trkpt>
      <trkpt lat="40.904837" lon="0.286739">
        <ele>482.626</ele>
        <time>2020-10-02T11:57:34Z</time>
      </trkpt>
      <trkpt lat="40.904966" lon="0.286009">
        <ele>483.808</ele>
        <time>2020-10-02T11:58:14Z</time>
      </trkpt>
      <trkpt lat="40.905193" lon="0.285065">
        <ele>484.723</ele>
        <time>2020-10-02T11:58:54Z</time>
      </trkpt>
      <trkpt lat="40.904966" lon="0.284894">
        <ele>484.135</ele>
        <time>2020-10-02T11:59:34Z</time>
      </trkpt>
      <trkpt lat="40.905242" lon="0.283670">
        <ele>489.594</ele>
        <time>2020-10-02T12:00:14Z</time>
      </trkpt>
      <trkpt lat="40.904691" lon="0.282576">
        <ele>495.537</ele>
        <time>2020-10-02T12:00:54Z</time>
      </trkpt>
      <trkpt lat="40.904415" lon="0.281568">
        <ele>502.997</ele>
        <time>2020-10-02T12:01:34Z</time>
      </trkpt>
      <trkpt lat="40.904415" lon="0.281181">
        <ele>498.810</ele>
        <time>2020-10-02T12:02:14Z</time>
      </trkpt>
      <trkpt lat="40.904058" lon="0.280602">
        <ele>502.542</ele>
        <time>2020-10-02T12:02:54Z</time>
      </trkpt>
      <trkpt lat="40.904334" lon="0.279100">
        <ele>503.840</ele>
        <time>2020-10-02T12:03:34Z</time>
      </trkpt>
      <trkpt lat="40.903474" lon="0.278499">
        <ele>506.118</ele>
        <time>2020-10-02T12:04:14Z</time>
      </trkpt>
      <trkpt lat="40.902404" lon="0.277727">
        <ele>512.898</ele>
        <time>2020-10-02T12:04:54Z</time>
      </trkpt>
      <trkpt lat="40.901982" lon="0.276783">
        <ele>518.517</ele>
        <time>2020-10-02T12:05:34Z</time>
      </trkpt>
      <trkpt lat="40.901982" lon="0.276096">
        <ele>523.008</ele>
        <time>2020-10-02T12:06:14Z</time>
      </trkpt>
      <trkpt lat="40.902453" lon="0.274830">
        <ele>519.756</ele>
        <time>2020-10-02T12:06:54Z</time>
      </trkpt>
      <trkpt lat="40.903004" lon="0.273285">
        <ele>513.868</ele>
        <time>2020-10-02T12:07:34Z</time>
      </trkpt>
      <trkpt lat="40.903150" lon="0.271719">
        <ele>511.967</ele>
        <time>2020-10-02T12:08:14Z</time>
      </trkpt>
      <trkpt lat="40.903945" lon="0.270753">
        <ele>508.340</ele>
        <time>2020-10-02T12:08:54Z</time>
      </trkpt>
      <trkpt lat="40.904820" lon="0.269594">
        <ele>504.070</ele>
        <time>2020-10-02T12:09:34Z</time>
      </trkpt>
      <trkpt lat="40.905404" lon="0.268543">
        <ele>501.643</ele>
        <time>2020-10-02T12:10:14Z</time>
      </trkpt>
      <trkpt lat="40.905242" lon="0.267899">
        <ele>495.895</ele>
        <time>2020-10-02T12:10:54Z</time>
      </trkpt>
      <trkpt lat="40.905842" lon="0.267878">
        <ele>492.153</ele>
        <time>2020-10-02T12:11:34Z</time>
      </trkpt>
      <trkpt lat="40.906248" lon="0.266612">
        <ele>493.027</ele>
        <time>2020-10-02T12:12:14Z</time>
      </trkpt>
      <trkpt lat="40.906702" lon="0.264959">
        <ele>495.368</ele>
        <time>2020-10-02T12:12:54Z</time>
      </trkpt>
      <trkpt lat="40.907253" lon="0.263779">
        <ele>501.314</ele>
        <time>2020-10-02T12:13:34Z</time>
      </trkpt>
      <trkpt lat="40.907123" lon="0.263243">
        <ele>502.808</ele>
        <time>2020-10-02T12:14:14Z</time>
      </trkpt>
      <trkpt lat="40.908664" lon="0.261805">
        <ele>495.637</ele>
        <time>2020-10-02T12:14:54Z</time>
      </trkpt>
      <trkpt lat="40.909442" lon="0.261097">
        <ele>502.069</ele>
        <time>2020-10-02T12:15:34Z</time>
      </trkpt>
    </trkseg>
  </trk>
</gpx>
